<?xml version="1.0" encoding="UTF-8" standalone="no" ?>
<gpx xmlns="http://www.topografix.com/GPX/1/1" xmlns:xsi="http://www.w3.org/2001/XMLSchema-instance" xsi:schemaLocation="http://www.topografix.com/GPX/1/1 http://www.topografix.com/GPX/1/1/gpx.xsd" version="1.1" creator="VisuGPX - https://www.visugpx.com">
  <metadata>
    <name>Les Quatre Termes (La Mongie)</name>
  </metadata>
  <trk>
    <name><![CDATA[Les Quatre Termes]]></name>
    <trkseg>
      <trkpt lat="42.90995" lon="0.17997">
        <ele>1628.156372</ele>
        <time>2021-03-23T08:34:58Z</time>
      </trkpt>
      <trkpt lat="42.90995" lon="0.17997">
        <ele>1628.156372</ele>
        <time>2021-03-23T08:34:59Z</time>
      </trkpt>
      <trkpt lat="42.90985" lon="0.17997">
        <ele>1628.6</ele>
        <time>2021-03-23T08:35:26Z</time>
      </trkpt>
      <trkpt lat="42.90976" lon="0.17998">
        <ele>1629.4</ele>
        <time>2021-03-23T08:35:35Z</time>
      </trkpt>
      <trkpt lat="42.90972" lon="0.17987">
        <ele>1628.3</ele>
        <time>2021-03-23T08:35:45Z</time>
      </trkpt>
      <trkpt lat="42.9097" lon="0.17974">
        <ele>1630.7</ele>
        <time>2021-03-23T08:36:03Z</time>
      </trkpt>
      <trkpt lat="42.90963" lon="0.17981">
        <ele>1630.7</ele>
        <time>2021-03-23T08:37:04Z</time>
      </trkpt>
      <trkpt lat="42.90954" lon="0.17976">
        <ele>1633.4</ele>
        <time>2021-03-23T08:37:44Z</time>
      </trkpt>
      <trkpt lat="42.90945" lon="0.17975">
        <ele>1633.5</ele>
        <time>2021-03-23T08:40:32Z</time>
      </trkpt>
      <trkpt lat="42.90936" lon="0.17973">
        <ele>1633.8</ele>
        <time>2021-03-23T08:40:50Z</time>
      </trkpt>
      <trkpt lat="42.90927" lon="0.17968">
        <ele>1634.5</ele>
        <time>2021-03-23T08:41:02Z</time>
      </trkpt>
      <trkpt lat="42.90919" lon="0.17961">
        <ele>1636.8</ele>
        <time>2021-03-23T08:41:18Z</time>
      </trkpt>
      <trkpt lat="42.90914" lon="0.17951">
        <ele>1639.1</ele>
        <time>2021-03-23T08:41:33Z</time>
      </trkpt>
      <trkpt lat="42.90908" lon="0.1794">
        <ele>1637.5</ele>
        <time>2021-03-23T08:41:52Z</time>
      </trkpt>
      <trkpt lat="42.90903" lon="0.1793">
        <ele>1639</ele>
        <time>2021-03-23T08:42:03Z</time>
      </trkpt>
      <trkpt lat="42.90898" lon="0.1792">
        <ele>1640.5</ele>
        <time>2021-03-23T08:42:16Z</time>
      </trkpt>
      <trkpt lat="42.90893" lon="0.17909">
        <ele>1641.5</ele>
        <time>2021-03-23T08:42:27Z</time>
      </trkpt>
      <trkpt lat="42.90887" lon="0.17899">
        <ele>1642.8</ele>
        <time>2021-03-23T08:42:41Z</time>
      </trkpt>
      <trkpt lat="42.90881" lon="0.1789">
        <ele>1643.6</ele>
        <time>2021-03-23T08:42:55Z</time>
      </trkpt>
      <trkpt lat="42.90876" lon="0.17879">
        <ele>1645.7</ele>
        <time>2021-03-23T08:43:12Z</time>
      </trkpt>
      <trkpt lat="42.90872" lon="0.17868">
        <ele>1647.5</ele>
        <time>2021-03-23T08:43:28Z</time>
      </trkpt>
      <trkpt lat="42.90866" lon="0.17858">
        <ele>1649.2</ele>
        <time>2021-03-23T08:43:42Z</time>
      </trkpt>
      <trkpt lat="42.90862" lon="0.17846">
        <ele>1651.7</ele>
        <time>2021-03-23T08:44:04Z</time>
      </trkpt>
      <trkpt lat="42.90853" lon="0.17849">
        <ele>1652.7</ele>
        <time>2021-03-23T08:44:17Z</time>
      </trkpt>
      <trkpt lat="42.90845" lon="0.17855">
        <ele>1652.7</ele>
        <time>2021-03-23T08:44:31Z</time>
      </trkpt>
      <trkpt lat="42.90837" lon="0.17863">
        <ele>1651.7</ele>
        <time>2021-03-23T08:45:00Z</time>
      </trkpt>
      <trkpt lat="42.90829" lon="0.1787">
        <ele>1652.8</ele>
        <time>2021-03-23T08:45:14Z</time>
      </trkpt>
      <trkpt lat="42.90822" lon="0.17877">
        <ele>1653.8</ele>
        <time>2021-03-23T08:45:33Z</time>
      </trkpt>
      <trkpt lat="42.90813" lon="0.17882">
        <ele>1654.5</ele>
        <time>2021-03-23T08:45:49Z</time>
      </trkpt>
      <trkpt lat="42.90804" lon="0.17885">
        <ele>1656.9</ele>
        <time>2021-03-23T08:46:04Z</time>
      </trkpt>
      <trkpt lat="42.90796" lon="0.17889">
        <ele>1660</ele>
        <time>2021-03-23T08:46:20Z</time>
      </trkpt>
      <trkpt lat="42.90787" lon="0.17892">
        <ele>1663.4</ele>
        <time>2021-03-23T08:46:45Z</time>
      </trkpt>
      <trkpt lat="42.90783" lon="0.17904">
        <ele>1665</ele>
        <time>2021-03-23T08:46:58Z</time>
      </trkpt>
      <trkpt lat="42.9078" lon="0.17916">
        <ele>1665.2</ele>
        <time>2021-03-23T08:47:13Z</time>
      </trkpt>
      <trkpt lat="42.90776" lon="0.17927">
        <ele>1666.7</ele>
        <time>2021-03-23T08:47:25Z</time>
      </trkpt>
      <trkpt lat="42.90775" lon="0.17941">
        <ele>1666.3</ele>
        <time>2021-03-23T08:47:41Z</time>
      </trkpt>
      <trkpt lat="42.90778" lon="0.17953">
        <ele>1667.7</ele>
        <time>2021-03-23T08:47:59Z</time>
      </trkpt>
      <trkpt lat="42.90779" lon="0.17965">
        <ele>1669.6</ele>
        <time>2021-03-23T08:48:13Z</time>
      </trkpt>
      <trkpt lat="42.9078" lon="0.17979">
        <ele>1670</ele>
        <time>2021-03-23T08:48:25Z</time>
      </trkpt>
      <trkpt lat="42.90778" lon="0.17991">
        <ele>1671.1</ele>
        <time>2021-03-23T08:48:39Z</time>
      </trkpt>
      <trkpt lat="42.90778" lon="0.18004">
        <ele>1670.8</ele>
        <time>2021-03-23T08:48:53Z</time>
      </trkpt>
      <trkpt lat="42.90779" lon="0.18017">
        <ele>1671.8</ele>
        <time>2021-03-23T08:49:09Z</time>
      </trkpt>
      <trkpt lat="42.9078" lon="0.18029">
        <ele>1672.9</ele>
        <time>2021-03-23T08:49:22Z</time>
      </trkpt>
      <trkpt lat="42.90779" lon="0.18041">
        <ele>1675.7</ele>
        <time>2021-03-23T08:49:36Z</time>
      </trkpt>
      <trkpt lat="42.90775" lon="0.18053">
        <ele>1676.2</ele>
        <time>2021-03-23T08:49:49Z</time>
      </trkpt>
      <trkpt lat="42.90766" lon="0.18056">
        <ele>1676.7</ele>
        <time>2021-03-23T08:50:02Z</time>
      </trkpt>
      <trkpt lat="42.90757" lon="0.18058">
        <ele>1678.2</ele>
        <time>2021-03-23T08:50:15Z</time>
      </trkpt>
      <trkpt lat="42.90748" lon="0.18058">
        <ele>1681.2</ele>
        <time>2021-03-23T08:50:32Z</time>
      </trkpt>
      <trkpt lat="42.90738" lon="0.18057">
        <ele>1683.1</ele>
        <time>2021-03-23T08:50:44Z</time>
      </trkpt>
      <trkpt lat="42.90729" lon="0.18056">
        <ele>1684</ele>
        <time>2021-03-23T08:50:58Z</time>
      </trkpt>
      <trkpt lat="42.9072" lon="0.18054">
        <ele>1684.7</ele>
        <time>2021-03-23T08:51:15Z</time>
      </trkpt>
      <trkpt lat="42.90712" lon="0.18062">
        <ele>1686.8</ele>
        <time>2021-03-23T08:51:34Z</time>
      </trkpt>
      <trkpt lat="42.90705" lon="0.18071">
        <ele>1689.8</ele>
        <time>2021-03-23T08:51:51Z</time>
      </trkpt>
      <trkpt lat="42.90698" lon="0.1808">
        <ele>1692.6</ele>
        <time>2021-03-23T08:52:16Z</time>
      </trkpt>
      <trkpt lat="42.90696" lon="0.18092">
        <ele>1694.6</ele>
        <time>2021-03-23T08:52:35Z</time>
      </trkpt>
      <trkpt lat="42.90691" lon="0.18102">
        <ele>1697.4</ele>
        <time>2021-03-23T08:52:49Z</time>
      </trkpt>
      <trkpt lat="42.90683" lon="0.18108">
        <ele>1700.3</ele>
        <time>2021-03-23T08:53:10Z</time>
      </trkpt>
      <trkpt lat="42.90678" lon="0.18098">
        <ele>1703.5</ele>
        <time>2021-03-23T08:53:29Z</time>
      </trkpt>
      <trkpt lat="42.90673" lon="0.18086">
        <ele>1708.6</ele>
        <time>2021-03-23T08:53:54Z</time>
      </trkpt>
      <trkpt lat="42.90669" lon="0.18075">
        <ele>1709.3</ele>
        <time>2021-03-23T08:54:12Z</time>
      </trkpt>
      <trkpt lat="42.90662" lon="0.18066">
        <ele>1711.1</ele>
        <time>2021-03-23T08:54:28Z</time>
      </trkpt>
      <trkpt lat="42.90655" lon="0.18058">
        <ele>1711.9</ele>
        <time>2021-03-23T08:54:41Z</time>
      </trkpt>
      <trkpt lat="42.90646" lon="0.18055">
        <ele>1712.1</ele>
        <time>2021-03-23T08:54:54Z</time>
      </trkpt>
      <trkpt lat="42.90636" lon="0.18051">
        <ele>1712.5</ele>
        <time>2021-03-23T08:55:07Z</time>
      </trkpt>
      <trkpt lat="42.90628" lon="0.18047">
        <ele>1713.5</ele>
        <time>2021-03-23T08:55:23Z</time>
      </trkpt>
      <trkpt lat="42.90618" lon="0.18048">
        <ele>1714.8</ele>
        <time>2021-03-23T08:55:37Z</time>
      </trkpt>
      <trkpt lat="42.90609" lon="0.1805">
        <ele>1716</ele>
        <time>2021-03-23T08:55:53Z</time>
      </trkpt>
      <trkpt lat="42.906" lon="0.18053">
        <ele>1716.6</ele>
        <time>2021-03-23T08:56:11Z</time>
      </trkpt>
      <trkpt lat="42.90591" lon="0.18057">
        <ele>1719</ele>
        <time>2021-03-23T08:56:27Z</time>
      </trkpt>
      <trkpt lat="42.90582" lon="0.18062">
        <ele>1721.3</ele>
        <time>2021-03-23T08:56:46Z</time>
      </trkpt>
      <trkpt lat="42.90573" lon="0.18062">
        <ele>1723.9</ele>
        <time>2021-03-23T08:57:09Z</time>
      </trkpt>
      <trkpt lat="42.9057" lon="0.18049">
        <ele>1725.4</ele>
        <time>2021-03-23T08:57:23Z</time>
      </trkpt>
      <trkpt lat="42.90565" lon="0.18039">
        <ele>1729.1</ele>
        <time>2021-03-23T08:57:42Z</time>
      </trkpt>
      <trkpt lat="42.90557" lon="0.18044">
        <ele>1730.2</ele>
        <time>2021-03-23T08:57:57Z</time>
      </trkpt>
      <trkpt lat="42.90549" lon="0.18051">
        <ele>1728.8</ele>
        <time>2021-03-23T08:58:17Z</time>
      </trkpt>
      <trkpt lat="42.90541" lon="0.18056">
        <ele>1729.9</ele>
        <time>2021-03-23T08:58:33Z</time>
      </trkpt>
      <trkpt lat="42.90539" lon="0.18044">
        <ele>1733.2</ele>
        <time>2021-03-23T08:58:54Z</time>
      </trkpt>
      <trkpt lat="42.90541" lon="0.18031">
        <ele>1736.7</ele>
        <time>2021-03-23T08:59:11Z</time>
      </trkpt>
      <trkpt lat="42.90544" lon="0.1802">
        <ele>1739</ele>
        <time>2021-03-23T08:59:34Z</time>
      </trkpt>
      <trkpt lat="42.90548" lon="0.18008">
        <ele>1741.6</ele>
        <time>2021-03-23T08:59:56Z</time>
      </trkpt>
      <trkpt lat="42.90553" lon="0.17997">
        <ele>1744.2</ele>
        <time>2021-03-23T09:00:17Z</time>
      </trkpt>
      <trkpt lat="42.90544" lon="0.17997">
        <ele>1745.4</ele>
        <time>2021-03-23T09:00:50Z</time>
      </trkpt>
      <trkpt lat="42.90535" lon="0.18001">
        <ele>1745.1</ele>
        <time>2021-03-23T09:01:07Z</time>
      </trkpt>
      <trkpt lat="42.90526" lon="0.18005">
        <ele>1745.5</ele>
        <time>2021-03-23T09:01:28Z</time>
      </trkpt>
      <trkpt lat="42.90518" lon="0.18011">
        <ele>1747.6</ele>
        <time>2021-03-23T09:01:42Z</time>
      </trkpt>
      <trkpt lat="42.9051" lon="0.18018">
        <ele>1747.8</ele>
        <time>2021-03-23T09:01:54Z</time>
      </trkpt>
      <trkpt lat="42.90503" lon="0.18025">
        <ele>1750.5</ele>
        <time>2021-03-23T09:02:13Z</time>
      </trkpt>
      <trkpt lat="42.90496" lon="0.18034">
        <ele>1752.7</ele>
        <time>2021-03-23T09:02:45Z</time>
      </trkpt>
      <trkpt lat="42.90492" lon="0.18046">
        <ele>1751.8</ele>
        <time>2021-03-23T09:03:03Z</time>
      </trkpt>
      <trkpt lat="42.9049" lon="0.18058">
        <ele>1756.4</ele>
        <time>2021-03-23T09:03:22Z</time>
      </trkpt>
      <trkpt lat="42.90483" lon="0.18049">
        <ele>1762.8</ele>
        <time>2021-03-23T09:04:22Z</time>
      </trkpt>
      <trkpt lat="42.90475" lon="0.18042">
        <ele>1769</ele>
        <time>2021-03-23T09:04:51Z</time>
      </trkpt>
      <trkpt lat="42.90476" lon="0.1803">
        <ele>1771.3</ele>
        <time>2021-03-23T09:05:25Z</time>
      </trkpt>
      <trkpt lat="42.90475" lon="0.18017">
        <ele>1775.2</ele>
        <time>2021-03-23T09:05:48Z</time>
      </trkpt>
      <trkpt lat="42.90478" lon="0.18005">
        <ele>1777.6</ele>
        <time>2021-03-23T09:06:17Z</time>
      </trkpt>
      <trkpt lat="42.90478" lon="0.17993">
        <ele>1778.7</ele>
        <time>2021-03-23T09:06:32Z</time>
      </trkpt>
      <trkpt lat="42.90479" lon="0.1798">
        <ele>1780.4</ele>
        <time>2021-03-23T09:06:50Z</time>
      </trkpt>
      <trkpt lat="42.90479" lon="0.17968">
        <ele>1782.3</ele>
        <time>2021-03-23T09:07:07Z</time>
      </trkpt>
      <trkpt lat="42.90478" lon="0.17955">
        <ele>1784.5</ele>
        <time>2021-03-23T09:08:04Z</time>
      </trkpt>
      <trkpt lat="42.9047" lon="0.1796">
        <ele>1786.6</ele>
        <time>2021-03-23T09:08:29Z</time>
      </trkpt>
      <trkpt lat="42.90464" lon="0.17971">
        <ele>1787.3</ele>
        <time>2021-03-23T09:08:45Z</time>
      </trkpt>
      <trkpt lat="42.9046" lon="0.17982">
        <ele>1789.5</ele>
        <time>2021-03-23T09:09:03Z</time>
      </trkpt>
      <trkpt lat="42.90455" lon="0.17993">
        <ele>1789.4</ele>
        <time>2021-03-23T09:09:19Z</time>
      </trkpt>
      <trkpt lat="42.90448" lon="0.18002">
        <ele>1791.9</ele>
        <time>2021-03-23T09:09:59Z</time>
      </trkpt>
      <trkpt lat="42.90448" lon="0.1799">
        <ele>1795</ele>
        <time>2021-03-23T09:10:40Z</time>
      </trkpt>
      <trkpt lat="42.90446" lon="0.17977">
        <ele>1798.6</ele>
        <time>2021-03-23T09:10:56Z</time>
      </trkpt>
      <trkpt lat="42.90443" lon="0.17965">
        <ele>1801.5</ele>
        <time>2021-03-23T09:11:14Z</time>
      </trkpt>
      <trkpt lat="42.90441" lon="0.17953">
        <ele>1803.8</ele>
        <time>2021-03-23T09:11:36Z</time>
      </trkpt>
      <trkpt lat="42.90437" lon="0.17941">
        <ele>1805.2</ele>
        <time>2021-03-23T09:11:56Z</time>
      </trkpt>
      <trkpt lat="42.90434" lon="0.1793">
        <ele>1807.1</ele>
        <time>2021-03-23T09:12:11Z</time>
      </trkpt>
      <trkpt lat="42.9043" lon="0.17918">
        <ele>1808.6</ele>
        <time>2021-03-23T09:12:26Z</time>
      </trkpt>
      <trkpt lat="42.90427" lon="0.17906">
        <ele>1811.7</ele>
        <time>2021-03-23T09:12:47Z</time>
      </trkpt>
      <trkpt lat="42.90423" lon="0.17895">
        <ele>1814.1</ele>
        <time>2021-03-23T09:13:07Z</time>
      </trkpt>
      <trkpt lat="42.90419" lon="0.17884">
        <ele>1815.2</ele>
        <time>2021-03-23T09:13:24Z</time>
      </trkpt>
      <trkpt lat="42.90416" lon="0.17873">
        <ele>1817.1</ele>
        <time>2021-03-23T09:13:43Z</time>
      </trkpt>
      <trkpt lat="42.90406" lon="0.17876">
        <ele>1818.1</ele>
        <time>2021-03-23T09:14:40Z</time>
      </trkpt>
      <trkpt lat="42.90401" lon="0.17887">
        <ele>1818.5</ele>
        <time>2021-03-23T09:14:55Z</time>
      </trkpt>
      <trkpt lat="42.90396" lon="0.17897">
        <ele>1819.7</ele>
        <time>2021-03-23T09:15:13Z</time>
      </trkpt>
      <trkpt lat="42.90391" lon="0.17908">
        <ele>1820.1</ele>
        <time>2021-03-23T09:15:32Z</time>
      </trkpt>
      <trkpt lat="42.90385" lon="0.17918">
        <ele>1822.4</ele>
        <time>2021-03-23T09:15:54Z</time>
      </trkpt>
      <trkpt lat="42.90383" lon="0.1793">
        <ele>1827</ele>
        <time>2021-03-23T09:16:16Z</time>
      </trkpt>
      <trkpt lat="42.90379" lon="0.17941">
        <ele>1830.3</ele>
        <time>2021-03-23T09:16:46Z</time>
      </trkpt>
      <trkpt lat="42.90378" lon="0.17953">
        <ele>1832.2</ele>
        <time>2021-03-23T09:17:05Z</time>
      </trkpt>
      <trkpt lat="42.90377" lon="0.17966">
        <ele>1835.2</ele>
        <time>2021-03-23T09:17:24Z</time>
      </trkpt>
      <trkpt lat="42.90374" lon="0.17978">
        <ele>1836.9</ele>
        <time>2021-03-23T09:17:40Z</time>
      </trkpt>
      <trkpt lat="42.90367" lon="0.17987">
        <ele>1838.2</ele>
        <time>2021-03-23T09:17:58Z</time>
      </trkpt>
      <trkpt lat="42.90359" lon="0.17994">
        <ele>1840.5</ele>
        <time>2021-03-23T09:18:17Z</time>
      </trkpt>
      <trkpt lat="42.90353" lon="0.18002">
        <ele>1843.1</ele>
        <time>2021-03-23T09:18:36Z</time>
      </trkpt>
      <trkpt lat="42.90345" lon="0.18011">
        <ele>1844.1</ele>
        <time>2021-03-23T09:18:56Z</time>
      </trkpt>
      <trkpt lat="42.90338" lon="0.18018">
        <ele>1846.1</ele>
        <time>2021-03-23T09:19:15Z</time>
      </trkpt>
      <trkpt lat="42.90329" lon="0.1802">
        <ele>1848</ele>
        <time>2021-03-23T09:19:28Z</time>
      </trkpt>
      <trkpt lat="42.9032" lon="0.18023">
        <ele>1849.9</ele>
        <time>2021-03-23T09:19:43Z</time>
      </trkpt>
      <trkpt lat="42.90311" lon="0.18028">
        <ele>1852.4</ele>
        <time>2021-03-23T09:20:05Z</time>
      </trkpt>
      <trkpt lat="42.90303" lon="0.18034">
        <ele>1857.9</ele>
        <time>2021-03-23T09:20:40Z</time>
      </trkpt>
      <trkpt lat="42.90295" lon="0.18028">
        <ele>1858.5</ele>
        <time>2021-03-23T09:20:56Z</time>
      </trkpt>
      <trkpt lat="42.90286" lon="0.18023">
        <ele>1860.5</ele>
        <time>2021-03-23T09:21:11Z</time>
      </trkpt>
      <trkpt lat="42.90276" lon="0.18023">
        <ele>1862</ele>
        <time>2021-03-23T09:21:30Z</time>
      </trkpt>
      <trkpt lat="42.90268" lon="0.18028">
        <ele>1864.2</ele>
        <time>2021-03-23T09:21:52Z</time>
      </trkpt>
      <trkpt lat="42.90259" lon="0.18033">
        <ele>1866.4</ele>
        <time>2021-03-23T09:22:08Z</time>
      </trkpt>
      <trkpt lat="42.90252" lon="0.18042">
        <ele>1868.5</ele>
        <time>2021-03-23T09:22:24Z</time>
      </trkpt>
      <trkpt lat="42.90245" lon="0.1805">
        <ele>1870.3</ele>
        <time>2021-03-23T09:22:43Z</time>
      </trkpt>
      <trkpt lat="42.90238" lon="0.18059">
        <ele>1873.1</ele>
        <time>2021-03-23T09:23:14Z</time>
      </trkpt>
      <trkpt lat="42.90231" lon="0.18066">
        <ele>1875.7</ele>
        <time>2021-03-23T09:23:36Z</time>
      </trkpt>
      <trkpt lat="42.90224" lon="0.18074">
        <ele>1877.9</ele>
        <time>2021-03-23T09:23:55Z</time>
      </trkpt>
      <trkpt lat="42.90217" lon="0.18082">
        <ele>1880</ele>
        <time>2021-03-23T09:24:44Z</time>
      </trkpt>
      <trkpt lat="42.90212" lon="0.18092">
        <ele>1883.7</ele>
        <time>2021-03-23T09:25:04Z</time>
      </trkpt>
      <trkpt lat="42.90207" lon="0.18103">
        <ele>1887.1</ele>
        <time>2021-03-23T09:25:37Z</time>
      </trkpt>
      <trkpt lat="42.90203" lon="0.18114">
        <ele>1890.4</ele>
        <time>2021-03-23T09:26:10Z</time>
      </trkpt>
      <trkpt lat="42.90199" lon="0.18126">
        <ele>1893</ele>
        <time>2021-03-23T09:26:47Z</time>
      </trkpt>
      <trkpt lat="42.90195" lon="0.18137">
        <ele>1895.4</ele>
        <time>2021-03-23T09:27:10Z</time>
      </trkpt>
      <trkpt lat="42.90191" lon="0.18125">
        <ele>1902.7</ele>
        <time>2021-03-23T09:27:55Z</time>
      </trkpt>
      <trkpt lat="42.90189" lon="0.18113">
        <ele>1906.9</ele>
        <time>2021-03-23T09:28:31Z</time>
      </trkpt>
      <trkpt lat="42.90184" lon="0.18103">
        <ele>1909.1</ele>
        <time>2021-03-23T09:28:59Z</time>
      </trkpt>
      <trkpt lat="42.90178" lon="0.18093">
        <ele>1912.3</ele>
        <time>2021-03-23T09:29:29Z</time>
      </trkpt>
      <trkpt lat="42.90171" lon="0.18101">
        <ele>1914.3</ele>
        <time>2021-03-23T09:30:24Z</time>
      </trkpt>
      <trkpt lat="42.90168" lon="0.18113">
        <ele>1917.1</ele>
        <time>2021-03-23T09:30:58Z</time>
      </trkpt>
      <trkpt lat="42.9016" lon="0.18108">
        <ele>1925.1</ele>
        <time>2021-03-23T09:32:15Z</time>
      </trkpt>
      <trkpt lat="42.90158" lon="0.18096">
        <ele>1929</ele>
        <time>2021-03-23T09:32:49Z</time>
      </trkpt>
      <trkpt lat="42.90154" lon="0.18085">
        <ele>1930.6</ele>
        <time>2021-03-23T09:33:24Z</time>
      </trkpt>
      <trkpt lat="42.90145" lon="0.1809">
        <ele>1934.4</ele>
        <time>2021-03-23T09:34:40Z</time>
      </trkpt>
      <trkpt lat="42.90141" lon="0.18102">
        <ele>1935.5</ele>
        <time>2021-03-23T09:35:26Z</time>
      </trkpt>
      <trkpt lat="42.90137" lon="0.1809">
        <ele>1941.9</ele>
        <time>2021-03-23T09:36:05Z</time>
      </trkpt>
      <trkpt lat="42.90134" lon="0.18079">
        <ele>1945.4</ele>
        <time>2021-03-23T09:36:30Z</time>
      </trkpt>
      <trkpt lat="42.90127" lon="0.18087">
        <ele>1947</ele>
        <time>2021-03-23T09:37:06Z</time>
      </trkpt>
      <trkpt lat="42.90123" lon="0.18099">
        <ele>1948.5</ele>
        <time>2021-03-23T09:37:34Z</time>
      </trkpt>
      <trkpt lat="42.90119" lon="0.1811">
        <ele>1951.2</ele>
        <time>2021-03-23T09:37:51Z</time>
      </trkpt>
      <trkpt lat="42.90114" lon="0.18121">
        <ele>1953.4</ele>
        <time>2021-03-23T09:38:21Z</time>
      </trkpt>
      <trkpt lat="42.90107" lon="0.1813">
        <ele>1955</ele>
        <time>2021-03-23T09:38:34Z</time>
      </trkpt>
      <trkpt lat="42.901" lon="0.18139">
        <ele>1957.4</ele>
        <time>2021-03-23T09:39:05Z</time>
      </trkpt>
      <trkpt lat="42.90093" lon="0.18147">
        <ele>1960.1</ele>
        <time>2021-03-23T09:39:22Z</time>
      </trkpt>
      <trkpt lat="42.90086" lon="0.18155">
        <ele>1960.4</ele>
        <time>2021-03-23T09:39:35Z</time>
      </trkpt>
      <trkpt lat="42.90079" lon="0.18163">
        <ele>1962.6</ele>
        <time>2021-03-23T09:39:51Z</time>
      </trkpt>
      <trkpt lat="42.90072" lon="0.18171">
        <ele>1965.8</ele>
        <time>2021-03-23T09:40:13Z</time>
      </trkpt>
      <trkpt lat="42.90064" lon="0.18176">
        <ele>1965.7</ele>
        <time>2021-03-23T09:49:00Z</time>
      </trkpt>
      <trkpt lat="42.90056" lon="0.18183">
        <ele>1967.5</ele>
        <time>2021-03-23T09:49:10Z</time>
      </trkpt>
      <trkpt lat="42.90048" lon="0.18191">
        <ele>1968.3</ele>
        <time>2021-03-23T09:49:21Z</time>
      </trkpt>
      <trkpt lat="42.90042" lon="0.18199">
        <ele>1969.5</ele>
        <time>2021-03-23T09:49:37Z</time>
      </trkpt>
      <trkpt lat="42.90033" lon="0.18205">
        <ele>1970.3</ele>
        <time>2021-03-23T09:49:49Z</time>
      </trkpt>
      <trkpt lat="42.90026" lon="0.18212">
        <ele>1970.8</ele>
        <time>2021-03-23T09:50:01Z</time>
      </trkpt>
      <trkpt lat="42.90017" lon="0.18217">
        <ele>1972.1</ele>
        <time>2021-03-23T09:50:23Z</time>
      </trkpt>
      <trkpt lat="42.90009" lon="0.18221">
        <ele>1972.7</ele>
        <time>2021-03-23T09:50:46Z</time>
      </trkpt>
      <trkpt lat="42.89999" lon="0.18224">
        <ele>1973.8</ele>
        <time>2021-03-23T09:50:58Z</time>
      </trkpt>
      <trkpt lat="42.89991" lon="0.18229">
        <ele>1975.3</ele>
        <time>2021-03-23T09:51:10Z</time>
      </trkpt>
      <trkpt lat="42.89984" lon="0.18237">
        <ele>1976.7</ele>
        <time>2021-03-23T09:51:23Z</time>
      </trkpt>
      <trkpt lat="42.89977" lon="0.18246">
        <ele>1977.2</ele>
        <time>2021-03-23T09:51:33Z</time>
      </trkpt>
      <trkpt lat="42.89969" lon="0.18251">
        <ele>1977.9</ele>
        <time>2021-03-23T09:51:44Z</time>
      </trkpt>
      <trkpt lat="42.89959" lon="0.18252">
        <ele>1979.1</ele>
        <time>2021-03-23T09:51:57Z</time>
      </trkpt>
      <trkpt lat="42.8995" lon="0.18249">
        <ele>1979.7</ele>
        <time>2021-03-23T09:52:07Z</time>
      </trkpt>
      <trkpt lat="42.89941" lon="0.18245">
        <ele>1981.5</ele>
        <time>2021-03-23T09:52:26Z</time>
      </trkpt>
      <trkpt lat="42.89933" lon="0.18238">
        <ele>1982.2</ele>
        <time>2021-03-23T09:52:38Z</time>
      </trkpt>
      <trkpt lat="42.89923" lon="0.18235">
        <ele>1982.9</ele>
        <time>2021-03-23T09:52:48Z</time>
      </trkpt>
      <trkpt lat="42.89914" lon="0.18232">
        <ele>1984.5</ele>
        <time>2021-03-23T09:53:01Z</time>
      </trkpt>
      <trkpt lat="42.89905" lon="0.18233">
        <ele>1985.7</ele>
        <time>2021-03-23T09:53:12Z</time>
      </trkpt>
      <trkpt lat="42.89895" lon="0.18235">
        <ele>1987</ele>
        <time>2021-03-23T09:53:29Z</time>
      </trkpt>
      <trkpt lat="42.89887" lon="0.18239">
        <ele>1988.8</ele>
        <time>2021-03-23T09:53:59Z</time>
      </trkpt>
      <trkpt lat="42.8988" lon="0.18248">
        <ele>1991.6</ele>
        <time>2021-03-23T09:54:20Z</time>
      </trkpt>
      <trkpt lat="42.89873" lon="0.18257">
        <ele>1994</ele>
        <time>2021-03-23T09:54:46Z</time>
      </trkpt>
      <trkpt lat="42.89868" lon="0.18268">
        <ele>1996.7</ele>
        <time>2021-03-23T09:55:06Z</time>
      </trkpt>
      <trkpt lat="42.89863" lon="0.18279">
        <ele>1999.5</ele>
        <time>2021-03-23T09:55:25Z</time>
      </trkpt>
      <trkpt lat="42.89859" lon="0.1829">
        <ele>2002.3</ele>
        <time>2021-03-23T09:55:44Z</time>
      </trkpt>
      <trkpt lat="42.89853" lon="0.183">
        <ele>2005.1</ele>
        <time>2021-03-23T09:56:18Z</time>
      </trkpt>
      <trkpt lat="42.89844" lon="0.18301">
        <ele>2007.2</ele>
        <time>2021-03-23T09:56:36Z</time>
      </trkpt>
      <trkpt lat="42.89834" lon="0.18301">
        <ele>2008.7</ele>
        <time>2021-03-23T09:56:55Z</time>
      </trkpt>
      <trkpt lat="42.89825" lon="0.18302">
        <ele>2010.3</ele>
        <time>2021-03-23T09:57:19Z</time>
      </trkpt>
      <trkpt lat="42.89815" lon="0.183">
        <ele>2011.3</ele>
        <time>2021-03-23T09:57:30Z</time>
      </trkpt>
      <trkpt lat="42.89807" lon="0.18295">
        <ele>2012</ele>
        <time>2021-03-23T09:57:40Z</time>
      </trkpt>
      <trkpt lat="42.89799" lon="0.18288">
        <ele>2014.2</ele>
        <time>2021-03-23T09:58:00Z</time>
      </trkpt>
      <trkpt lat="42.89793" lon="0.18279">
        <ele>2015.2</ele>
        <time>2021-03-23T09:58:11Z</time>
      </trkpt>
      <trkpt lat="42.89787" lon="0.18267">
        <ele>2017.3</ele>
        <time>2021-03-23T09:58:36Z</time>
      </trkpt>
      <trkpt lat="42.8978" lon="0.18256">
        <ele>2017</ele>
        <time>2021-03-23T09:58:54Z</time>
      </trkpt>
      <trkpt lat="42.89772" lon="0.18249">
        <ele>2018</ele>
        <time>2021-03-23T09:59:07Z</time>
      </trkpt>
      <trkpt lat="42.89762" lon="0.18243">
        <ele>2020</ele>
        <time>2021-03-23T09:59:40Z</time>
      </trkpt>
      <trkpt lat="42.89752" lon="0.18236">
        <ele>2021</ele>
        <time>2021-03-23T09:59:54Z</time>
      </trkpt>
      <trkpt lat="42.89744" lon="0.18231">
        <ele>2022.6</ele>
        <time>2021-03-23T10:00:07Z</time>
      </trkpt>
      <trkpt lat="42.89733" lon="0.18231">
        <ele>2023</ele>
        <time>2021-03-23T10:00:22Z</time>
      </trkpt>
      <trkpt lat="42.89722" lon="0.18233">
        <ele>2025</ele>
        <time>2021-03-23T10:00:35Z</time>
      </trkpt>
      <trkpt lat="42.89712" lon="0.18235">
        <ele>2026.7</ele>
        <time>2021-03-23T10:00:50Z</time>
      </trkpt>
      <trkpt lat="42.89703" lon="0.18238">
        <ele>2027.9</ele>
        <time>2021-03-23T10:01:02Z</time>
      </trkpt>
      <trkpt lat="42.89694" lon="0.18234">
        <ele>2029</ele>
        <time>2021-03-23T10:01:14Z</time>
      </trkpt>
      <trkpt lat="42.89685" lon="0.18233">
        <ele>2030.9</ele>
        <time>2021-03-23T10:01:28Z</time>
      </trkpt>
      <trkpt lat="42.89676" lon="0.18228">
        <ele>2032</ele>
        <time>2021-03-23T10:01:57Z</time>
      </trkpt>
      <trkpt lat="42.89668" lon="0.18223">
        <ele>2034.3</ele>
        <time>2021-03-23T10:02:15Z</time>
      </trkpt>
      <trkpt lat="42.89658" lon="0.18219">
        <ele>2036</ele>
        <time>2021-03-23T10:02:29Z</time>
      </trkpt>
      <trkpt lat="42.8965" lon="0.18211">
        <ele>2037</ele>
        <time>2021-03-23T10:02:59Z</time>
      </trkpt>
      <trkpt lat="42.89641" lon="0.18207">
        <ele>2038</ele>
        <time>2021-03-23T10:03:23Z</time>
      </trkpt>
      <trkpt lat="42.89633" lon="0.18202">
        <ele>2040</ele>
        <time>2021-03-23T10:03:38Z</time>
      </trkpt>
      <trkpt lat="42.89625" lon="0.18194">
        <ele>2041.8</ele>
        <time>2021-03-23T10:03:57Z</time>
      </trkpt>
      <trkpt lat="42.89619" lon="0.18182">
        <ele>2043</ele>
        <time>2021-03-23T10:04:12Z</time>
      </trkpt>
      <trkpt lat="42.89609" lon="0.18178">
        <ele>2043.8</ele>
        <time>2021-03-23T10:04:59Z</time>
      </trkpt>
      <trkpt lat="42.89601" lon="0.18174">
        <ele>2043.5</ele>
        <time>2021-03-23T10:05:13Z</time>
      </trkpt>
      <trkpt lat="42.89592" lon="0.18171">
        <ele>2044.7</ele>
        <time>2021-03-23T10:06:00Z</time>
      </trkpt>
      <trkpt lat="42.89585" lon="0.1818">
        <ele>2046.7</ele>
        <time>2021-03-23T10:06:15Z</time>
      </trkpt>
      <trkpt lat="42.89578" lon="0.18189">
        <ele>2048.8</ele>
        <time>2021-03-23T10:06:32Z</time>
      </trkpt>
      <trkpt lat="42.89573" lon="0.18199">
        <ele>2050.6</ele>
        <time>2021-03-23T10:06:46Z</time>
      </trkpt>
      <trkpt lat="42.89566" lon="0.18207">
        <ele>2054.5</ele>
        <time>2021-03-23T10:07:32Z</time>
      </trkpt>
      <trkpt lat="42.89558" lon="0.18215">
        <ele>2057.5</ele>
        <time>2021-03-23T10:07:53Z</time>
      </trkpt>
      <trkpt lat="42.89549" lon="0.18218">
        <ele>2060.1</ele>
        <time>2021-03-23T10:08:30Z</time>
      </trkpt>
      <trkpt lat="42.8954" lon="0.18225">
        <ele>2063</ele>
        <time>2021-03-23T10:08:57Z</time>
      </trkpt>
      <trkpt lat="42.89532" lon="0.18229">
        <ele>2065.7</ele>
        <time>2021-03-23T10:09:24Z</time>
      </trkpt>
      <trkpt lat="42.89523" lon="0.18231">
        <ele>2068.8</ele>
        <time>2021-03-23T10:09:49Z</time>
      </trkpt>
      <trkpt lat="42.89514" lon="0.18236">
        <ele>2072.1</ele>
        <time>2021-03-23T10:10:42Z</time>
      </trkpt>
      <trkpt lat="42.89507" lon="0.18243">
        <ele>2074.9</ele>
        <time>2021-03-23T10:11:12Z</time>
      </trkpt>
      <trkpt lat="42.89497" lon="0.18245">
        <ele>2080.6</ele>
        <time>2021-03-23T10:12:12Z</time>
      </trkpt>
      <trkpt lat="42.8949" lon="0.18252">
        <ele>2082.9</ele>
        <time>2021-03-23T10:13:07Z</time>
      </trkpt>
      <trkpt lat="42.89481" lon="0.18256">
        <ele>2088.9</ele>
        <time>2021-03-23T10:14:17Z</time>
      </trkpt>
      <trkpt lat="42.89472" lon="0.18259">
        <ele>2092.4</ele>
        <time>2021-03-23T10:14:40Z</time>
      </trkpt>
      <trkpt lat="42.89463" lon="0.18263">
        <ele>2096</ele>
        <time>2021-03-23T10:15:24Z</time>
      </trkpt>
      <trkpt lat="42.8948" lon="0.18258">
        <ele>2096.9</ele>
        <time>2021-03-23T10:15:59Z</time>
      </trkpt>
      <trkpt lat="42.89491" lon="0.18257">
        <ele>2097.1</ele>
        <time>2021-03-23T10:16:19Z</time>
      </trkpt>
      <trkpt lat="42.895" lon="0.18255">
        <ele>2097.2</ele>
        <time>2021-03-23T10:16:42Z</time>
      </trkpt>
      <trkpt lat="42.89495" lon="0.18245">
        <ele>2099.6</ele>
        <time>2021-03-23T10:19:08Z</time>
      </trkpt>
      <trkpt lat="42.89498" lon="0.18233">
        <ele>2103</ele>
        <time>2021-03-23T10:20:02Z</time>
      </trkpt>
      <trkpt lat="42.89499" lon="0.18218">
        <ele>2103.8</ele>
        <time>2021-03-23T10:20:53Z</time>
      </trkpt>
      <trkpt lat="42.8949" lon="0.18223">
        <ele>2109.2</ele>
        <time>2021-03-23T10:21:12Z</time>
      </trkpt>
      <trkpt lat="42.89481" lon="0.18226">
        <ele>2111.9</ele>
        <time>2021-03-23T10:21:39Z</time>
      </trkpt>
      <trkpt lat="42.89472" lon="0.18228">
        <ele>2114.1</ele>
        <time>2021-03-23T10:21:58Z</time>
      </trkpt>
      <trkpt lat="42.89463" lon="0.18231">
        <ele>2116.7</ele>
        <time>2021-03-23T10:22:29Z</time>
      </trkpt>
      <trkpt lat="42.89463" lon="0.18218">
        <ele>2122.2</ele>
        <time>2021-03-23T10:24:10Z</time>
      </trkpt>
      <trkpt lat="42.89466" lon="0.18207">
        <ele>2124.9</ele>
        <time>2021-03-23T10:24:39Z</time>
      </trkpt>
      <trkpt lat="42.89457" lon="0.18204">
        <ele>2127.7</ele>
        <time>2021-03-23T10:25:33Z</time>
      </trkpt>
      <trkpt lat="42.8945" lon="0.18211">
        <ele>2129.6</ele>
        <time>2021-03-23T10:25:53Z</time>
      </trkpt>
      <trkpt lat="42.89444" lon="0.1822">
        <ele>2129.9</ele>
        <time>2021-03-23T10:26:05Z</time>
      </trkpt>
      <trkpt lat="42.89432" lon="0.18219">
        <ele>2130.9</ele>
        <time>2021-03-23T10:27:02Z</time>
      </trkpt>
      <trkpt lat="42.89422" lon="0.18217">
        <ele>2131.8</ele>
        <time>2021-03-23T10:27:13Z</time>
      </trkpt>
      <trkpt lat="42.89413" lon="0.18216">
        <ele>2131.8</ele>
        <time>2021-03-23T10:29:23Z</time>
      </trkpt>
      <trkpt lat="42.89417" lon="0.18205">
        <ele>2135.7</ele>
        <time>2021-03-23T10:30:57Z</time>
      </trkpt>
      <trkpt lat="42.89423" lon="0.18195">
        <ele>2137.3</ele>
        <time>2021-03-23T10:31:29Z</time>
      </trkpt>
      <trkpt lat="42.89429" lon="0.18186">
        <ele>2139.7</ele>
        <time>2021-03-23T10:31:49Z</time>
      </trkpt>
      <trkpt lat="42.8943" lon="0.18173">
        <ele>2147.1</ele>
        <time>2021-03-23T10:33:04Z</time>
      </trkpt>
      <trkpt lat="42.89435" lon="0.18163">
        <ele>2150.2</ele>
        <time>2021-03-23T10:33:35Z</time>
      </trkpt>
      <trkpt lat="42.89438" lon="0.18149">
        <ele>2154.5</ele>
        <time>2021-03-23T10:34:24Z</time>
      </trkpt>
      <trkpt lat="42.89446" lon="0.18143">
        <ele>2156.3</ele>
        <time>2021-03-23T10:34:37Z</time>
      </trkpt>
      <trkpt lat="42.89453" lon="0.18135">
        <ele>2160.1</ele>
        <time>2021-03-23T10:35:31Z</time>
      </trkpt>
      <trkpt lat="42.8946" lon="0.18126">
        <ele>2163.2</ele>
        <time>2021-03-23T10:35:51Z</time>
      </trkpt>
      <trkpt lat="42.89451" lon="0.18119">
        <ele>2168.1</ele>
        <time>2021-03-23T10:36:41Z</time>
      </trkpt>
      <trkpt lat="42.89442" lon="0.18118">
        <ele>2170.5</ele>
        <time>2021-03-23T10:37:14Z</time>
      </trkpt>
      <trkpt lat="42.89433" lon="0.18118">
        <ele>2171.3</ele>
        <time>2021-03-23T10:37:28Z</time>
      </trkpt>
      <trkpt lat="42.89437" lon="0.18107">
        <ele>2175.9</ele>
        <time>2021-03-23T10:38:04Z</time>
      </trkpt>
      <trkpt lat="42.89429" lon="0.18101">
        <ele>2180.8</ele>
        <time>2021-03-23T10:39:07Z</time>
      </trkpt>
      <trkpt lat="42.89419" lon="0.181">
        <ele>2184.3</ele>
        <time>2021-03-23T10:39:39Z</time>
      </trkpt>
      <trkpt lat="42.8941" lon="0.18102">
        <ele>2186.9</ele>
        <time>2021-03-23T10:40:05Z</time>
      </trkpt>
      <trkpt lat="42.89413" lon="0.1809">
        <ele>2190</ele>
        <time>2021-03-23T10:40:44Z</time>
      </trkpt>
      <trkpt lat="42.8942" lon="0.18081">
        <ele>2192.9</ele>
        <time>2021-03-23T10:41:21Z</time>
      </trkpt>
      <trkpt lat="42.89425" lon="0.1807">
        <ele>2194.1</ele>
        <time>2021-03-23T10:41:39Z</time>
      </trkpt>
      <trkpt lat="42.89421" lon="0.18059">
        <ele>2197.5</ele>
        <time>2021-03-23T10:42:16Z</time>
      </trkpt>
      <trkpt lat="42.89416" lon="0.18048">
        <ele>2199.9</ele>
        <time>2021-03-23T10:42:43Z</time>
      </trkpt>
      <trkpt lat="42.89413" lon="0.18037">
        <ele>2202</ele>
        <time>2021-03-23T10:43:01Z</time>
      </trkpt>
      <trkpt lat="42.89415" lon="0.18024">
        <ele>2203.7</ele>
        <time>2021-03-23T10:43:24Z</time>
      </trkpt>
      <trkpt lat="42.89417" lon="0.18012">
        <ele>2205.3</ele>
        <time>2021-03-23T10:43:38Z</time>
      </trkpt>
      <trkpt lat="42.89418" lon="0.17999">
        <ele>2207.2</ele>
        <time>2021-03-23T10:43:55Z</time>
      </trkpt>
      <trkpt lat="42.89418" lon="0.17987">
        <ele>2207.4</ele>
        <time>2021-03-23T10:47:39Z</time>
      </trkpt>
      <trkpt lat="42.89417" lon="0.17974">
        <ele>2208.8</ele>
        <time>2021-03-23T10:49:14Z</time>
      </trkpt>
      <trkpt lat="42.89415" lon="0.17962">
        <ele>2209.3</ele>
        <time>2021-03-23T10:50:12Z</time>
      </trkpt>
      <trkpt lat="42.89413" lon="0.1795">
        <ele>2210.7</ele>
        <time>2021-03-23T10:50:29Z</time>
      </trkpt>
      <trkpt lat="42.89411" lon="0.17937">
        <ele>2211.1</ele>
        <time>2021-03-23T10:50:41Z</time>
      </trkpt>
      <trkpt lat="42.89412" lon="0.17925">
        <ele>2212.7</ele>
        <time>2021-03-23T10:51:03Z</time>
      </trkpt>
      <trkpt lat="42.89412" lon="0.17912">
        <ele>2214.2</ele>
        <time>2021-03-23T10:51:22Z</time>
      </trkpt>
      <trkpt lat="42.89413" lon="0.179">
        <ele>2215.8</ele>
        <time>2021-03-23T10:51:36Z</time>
      </trkpt>
      <trkpt lat="42.89411" lon="0.17887">
        <ele>2217.5</ele>
        <time>2021-03-23T10:51:59Z</time>
      </trkpt>
      <trkpt lat="42.89413" lon="0.17875">
        <ele>2218.4</ele>
        <time>2021-03-23T10:52:16Z</time>
      </trkpt>
      <trkpt lat="42.89417" lon="0.17863">
        <ele>2219.2</ele>
        <time>2021-03-23T10:52:30Z</time>
      </trkpt>
      <trkpt lat="42.89416" lon="0.1785">
        <ele>2220.8</ele>
        <time>2021-03-23T10:52:50Z</time>
      </trkpt>
      <trkpt lat="42.89413" lon="0.17839">
        <ele>2223.3</ele>
        <time>2021-03-23T10:53:12Z</time>
      </trkpt>
      <trkpt lat="42.89413" lon="0.17826">
        <ele>2225.7</ele>
        <time>2021-03-23T10:53:37Z</time>
      </trkpt>
      <trkpt lat="42.8941" lon="0.17815">
        <ele>2227.6</ele>
        <time>2021-03-23T10:53:59Z</time>
      </trkpt>
      <trkpt lat="42.89407" lon="0.17803">
        <ele>2229.7</ele>
        <time>2021-03-23T10:54:19Z</time>
      </trkpt>
      <trkpt lat="42.89406" lon="0.1779">
        <ele>2232.3</ele>
        <time>2021-03-23T10:54:46Z</time>
      </trkpt>
      <trkpt lat="42.89402" lon="0.1778">
        <ele>2233.5</ele>
        <time>2021-03-23T10:55:03Z</time>
      </trkpt>
      <trkpt lat="42.89397" lon="0.17769">
        <ele>2234.9</ele>
        <time>2021-03-23T10:55:20Z</time>
      </trkpt>
      <trkpt lat="42.89389" lon="0.17764">
        <ele>2236.6</ele>
        <time>2021-03-23T10:55:37Z</time>
      </trkpt>
      <trkpt lat="42.89386" lon="0.17752">
        <ele>2239.1</ele>
        <time>2021-03-23T10:56:09Z</time>
      </trkpt>
      <trkpt lat="42.89381" lon="0.1774">
        <ele>2241.7</ele>
        <time>2021-03-23T10:56:31Z</time>
      </trkpt>
      <trkpt lat="42.89371" lon="0.17738">
        <ele>2243.2</ele>
        <time>2021-03-23T10:56:48Z</time>
      </trkpt>
      <trkpt lat="42.89363" lon="0.17733">
        <ele>2243.9</ele>
        <time>2021-03-23T10:57:03Z</time>
      </trkpt>
      <trkpt lat="42.89356" lon="0.17725">
        <ele>2245.3</ele>
        <time>2021-03-23T10:57:15Z</time>
      </trkpt>
      <trkpt lat="42.89346" lon="0.17722">
        <ele>2246.6</ele>
        <time>2021-03-23T10:57:26Z</time>
      </trkpt>
      <trkpt lat="42.89338" lon="0.17716">
        <ele>2247.7</ele>
        <time>2021-03-23T10:57:58Z</time>
      </trkpt>
      <trkpt lat="42.8933" lon="0.17712">
        <ele>2249.3</ele>
        <time>2021-03-23T10:58:14Z</time>
      </trkpt>
      <trkpt lat="42.8932" lon="0.17712">
        <ele>2250.4</ele>
        <time>2021-03-23T10:58:35Z</time>
      </trkpt>
      <trkpt lat="42.89311" lon="0.17714">
        <ele>2252.1</ele>
        <time>2021-03-23T10:58:55Z</time>
      </trkpt>
      <trkpt lat="42.89301" lon="0.17717">
        <ele>2254.4</ele>
        <time>2021-03-23T10:59:12Z</time>
      </trkpt>
      <trkpt lat="42.89292" lon="0.17717">
        <ele>2255.6</ele>
        <time>2021-03-23T10:59:22Z</time>
      </trkpt>
      <trkpt lat="42.89283" lon="0.17716">
        <ele>2256.8</ele>
        <time>2021-03-23T10:59:40Z</time>
      </trkpt>
      <trkpt lat="42.89273" lon="0.17715">
        <ele>2258.1</ele>
        <time>2021-03-23T10:59:58Z</time>
      </trkpt>
      <trkpt lat="42.89264" lon="0.17714">
        <ele>2259.6</ele>
        <time>2021-03-23T11:00:11Z</time>
      </trkpt>
      <trkpt lat="42.89255" lon="0.1771">
        <ele>2261.2</ele>
        <time>2021-03-23T11:00:25Z</time>
      </trkpt>
      <trkpt lat="42.89247" lon="0.17707">
        <ele>2262.8</ele>
        <time>2021-03-23T11:00:36Z</time>
      </trkpt>
      <trkpt lat="42.89237" lon="0.17702">
        <ele>2263.9</ele>
        <time>2021-03-23T11:00:48Z</time>
      </trkpt>
      <trkpt lat="42.89228" lon="0.17703">
        <ele>2264</ele>
        <time>2021-03-23T11:01:00Z</time>
      </trkpt>
      <trkpt lat="42.89219" lon="0.17701">
        <ele>2264.8</ele>
        <time>2021-03-23T11:01:24Z</time>
      </trkpt>
      <trkpt lat="42.8921" lon="0.17698">
        <ele>2266.9</ele>
        <time>2021-03-23T11:01:45Z</time>
      </trkpt>
      <trkpt lat="42.89201" lon="0.17698">
        <ele>2269.4</ele>
        <time>2021-03-23T11:02:14Z</time>
      </trkpt>
      <trkpt lat="42.89192" lon="0.17698">
        <ele>2271.7</ele>
        <time>2021-03-23T11:02:32Z</time>
      </trkpt>
      <trkpt lat="42.89184" lon="0.17706">
        <ele>2274.7</ele>
        <time>2021-03-23T11:03:11Z</time>
      </trkpt>
      <trkpt lat="42.89175" lon="0.17705">
        <ele>2276.3</ele>
        <time>2021-03-23T11:03:28Z</time>
      </trkpt>
      <trkpt lat="42.89166" lon="0.17708">
        <ele>2279</ele>
        <time>2021-03-23T11:04:25Z</time>
      </trkpt>
      <trkpt lat="42.89157" lon="0.17711">
        <ele>2281.7</ele>
        <time>2021-03-23T11:04:48Z</time>
      </trkpt>
      <trkpt lat="42.89148" lon="0.17715">
        <ele>2284.9</ele>
        <time>2021-03-23T11:05:29Z</time>
      </trkpt>
      <trkpt lat="42.89139" lon="0.17715">
        <ele>2286.6</ele>
        <time>2021-03-23T11:05:46Z</time>
      </trkpt>
      <trkpt lat="42.8913" lon="0.17713">
        <ele>2288.6</ele>
        <time>2021-03-23T11:06:02Z</time>
      </trkpt>
      <trkpt lat="42.89136" lon="0.17722">
        <ele>2291.1</ele>
        <time>2021-03-23T11:06:44Z</time>
      </trkpt>
      <trkpt lat="42.8914" lon="0.17733">
        <ele>2292.8</ele>
        <time>2021-03-23T11:07:07Z</time>
      </trkpt>
      <trkpt lat="42.89147" lon="0.1774">
        <ele>2295.4</ele>
        <time>2021-03-23T11:07:28Z</time>
      </trkpt>
      <trkpt lat="42.89156" lon="0.17747">
        <ele>2297.8</ele>
        <time>2021-03-23T11:07:45Z</time>
      </trkpt>
      <trkpt lat="42.89162" lon="0.17755">
        <ele>2301.6</ele>
        <time>2021-03-23T11:08:11Z</time>
      </trkpt>
      <trkpt lat="42.89154" lon="0.17761">
        <ele>2303</ele>
        <time>2021-03-23T11:09:07Z</time>
      </trkpt>
      <trkpt lat="42.8916" lon="0.1777">
        <ele>2311.8</ele>
        <time>2021-03-23T11:09:56Z</time>
      </trkpt>
      <trkpt lat="42.89151" lon="0.17772">
        <ele>2310.1</ele>
        <time>2021-03-23T11:10:30Z</time>
      </trkpt>
      <trkpt lat="42.89142" lon="0.17775">
        <ele>2313.1</ele>
        <time>2021-03-23T11:11:01Z</time>
      </trkpt>
      <trkpt lat="42.89133" lon="0.17777">
        <ele>2311.9</ele>
        <time>2021-03-23T11:11:13Z</time>
      </trkpt>
      <trkpt lat="42.89123" lon="0.17777">
        <ele>2313.3</ele>
        <time>2021-03-23T11:11:29Z</time>
      </trkpt>
      <trkpt lat="42.89114" lon="0.17773">
        <ele>2317.3</ele>
        <time>2021-03-23T11:11:49Z</time>
      </trkpt>
      <trkpt lat="42.89105" lon="0.17772">
        <ele>2317.6</ele>
        <time>2021-03-23T11:12:03Z</time>
      </trkpt>
      <trkpt lat="42.89096" lon="0.17768">
        <ele>2318.1</ele>
        <time>2021-03-23T11:12:21Z</time>
      </trkpt>
      <trkpt lat="42.89101" lon="0.1778">
        <ele>2325.9</ele>
        <time>2021-03-23T11:13:42Z</time>
      </trkpt>
      <trkpt lat="42.89105" lon="0.17791">
        <ele>2330.4</ele>
        <time>2021-03-23T11:14:09Z</time>
      </trkpt>
      <trkpt lat="42.89095" lon="0.17788">
        <ele>2332</ele>
        <time>2021-03-23T11:15:22Z</time>
      </trkpt>
      <trkpt lat="42.89087" lon="0.17781">
        <ele>2336</ele>
        <time>2021-03-23T11:15:36Z</time>
      </trkpt>
      <trkpt lat="42.89081" lon="0.1779">
        <ele>2341</ele>
        <time>2021-03-23T11:16:52Z</time>
      </trkpt>
      <trkpt lat="42.89072" lon="0.17782">
        <ele>2344</ele>
        <time>2021-03-23T11:17:14Z</time>
      </trkpt>
      <trkpt lat="42.89067" lon="0.17771">
        <ele>2346.2</ele>
        <time>2021-03-23T11:17:49Z</time>
      </trkpt>
      <trkpt lat="42.89059" lon="0.17763">
        <ele>2349.2</ele>
        <time>2021-03-23T11:18:23Z</time>
      </trkpt>
      <trkpt lat="42.89053" lon="0.17754">
        <ele>2352.5</ele>
        <time>2021-03-23T11:19:00Z</time>
      </trkpt>
      <trkpt lat="42.89046" lon="0.17746">
        <ele>2353.6</ele>
        <time>2021-03-23T11:19:25Z</time>
      </trkpt>
      <trkpt lat="42.89038" lon="0.17738">
        <ele>2355.8</ele>
        <time>2021-03-23T11:19:44Z</time>
      </trkpt>
      <trkpt lat="42.89031" lon="0.1773">
        <ele>2356.2</ele>
        <time>2021-03-23T11:19:54Z</time>
      </trkpt>
      <trkpt lat="42.89023" lon="0.17723">
        <ele>2356.8</ele>
        <time>2021-03-23T11:20:15Z</time>
      </trkpt>
      <trkpt lat="42.89016" lon="0.17713">
        <ele>2357.3</ele>
        <time>2021-03-23T11:20:27Z</time>
      </trkpt>
      <trkpt lat="42.89011" lon="0.17703">
        <ele>2356.6</ele>
        <time>2021-03-23T11:20:39Z</time>
      </trkpt>
      <trkpt lat="42.89005" lon="0.17693">
        <ele>2358.4</ele>
        <time>2021-03-23T11:20:55Z</time>
      </trkpt>
      <trkpt lat="42.89" lon="0.17682">
        <ele>2360.3</ele>
        <time>2021-03-23T11:21:37Z</time>
      </trkpt>
      <trkpt lat="42.88993" lon="0.17673">
        <ele>2361.5</ele>
        <time>2021-03-23T11:21:48Z</time>
      </trkpt>
      <trkpt lat="42.88987" lon="0.17663">
        <ele>2363.8</ele>
        <time>2021-03-23T11:22:19Z</time>
      </trkpt>
      <trkpt lat="42.88983" lon="0.17651">
        <ele>2366</ele>
        <time>2021-03-23T11:22:44Z</time>
      </trkpt>
      <trkpt lat="42.88991" lon="0.17644">
        <ele>2367.7</ele>
        <time>2021-03-23T11:23:15Z</time>
      </trkpt>
      <trkpt lat="42.88986" lon="0.17633">
        <ele>2368.8</ele>
        <time>2021-03-23T11:23:46Z</time>
      </trkpt>
      <trkpt lat="42.88986" lon="0.17621">
        <ele>2369.9</ele>
        <time>2021-03-23T11:23:59Z</time>
      </trkpt>
      <trkpt lat="42.88984" lon="0.17608">
        <ele>2372.6</ele>
        <time>2021-03-23T11:24:33Z</time>
      </trkpt>
      <trkpt lat="42.88984" lon="0.17595">
        <ele>2372.5</ele>
        <time>2021-03-23T11:24:47Z</time>
      </trkpt>
      <trkpt lat="42.88987" lon="0.17583">
        <ele>2375.9</ele>
        <time>2021-03-23T11:25:31Z</time>
      </trkpt>
      <trkpt lat="42.88995" lon="0.17574">
        <ele>2377.4</ele>
        <time>2021-03-23T11:25:50Z</time>
      </trkpt>
      <trkpt lat="42.88997" lon="0.17561">
        <ele>2380.7</ele>
        <time>2021-03-23T11:26:23Z</time>
      </trkpt>
      <trkpt lat="42.88999" lon="0.17549">
        <ele>2381.5</ele>
        <time>2021-03-23T11:26:42Z</time>
      </trkpt>
      <trkpt lat="42.88997" lon="0.17536">
        <ele>2384.3</ele>
        <time>2021-03-23T11:27:00Z</time>
      </trkpt>
      <trkpt lat="42.88996" lon="0.17523">
        <ele>2387</ele>
        <time>2021-03-23T11:27:15Z</time>
      </trkpt>
      <trkpt lat="42.88987" lon="0.17518">
        <ele>2389.8</ele>
        <time>2021-03-23T11:28:02Z</time>
      </trkpt>
      <trkpt lat="42.88978" lon="0.17518">
        <ele>2389.6</ele>
        <time>2021-03-23T11:28:27Z</time>
      </trkpt>
      <trkpt lat="42.88968" lon="0.17518">
        <ele>2392.2</ele>
        <time>2021-03-23T11:29:03Z</time>
      </trkpt>
      <trkpt lat="42.88961" lon="0.1751">
        <ele>2395.4</ele>
        <time>2021-03-23T11:29:58Z</time>
      </trkpt>
      <trkpt lat="42.88968" lon="0.17518">
        <ele>2395.6</ele>
        <time>2021-03-23T11:33:20Z</time>
      </trkpt>
      <trkpt lat="42.88958" lon="0.17516">
        <ele>2396</ele>
        <time>2021-03-23T11:34:29Z</time>
      </trkpt>
      <trkpt lat="42.88951" lon="0.17509">
        <ele>2397</ele>
        <time>2021-03-23T11:34:48Z</time>
      </trkpt>
      <trkpt lat="42.88943" lon="0.17502">
        <ele>2399.5</ele>
        <time>2021-03-23T11:35:01Z</time>
      </trkpt>
      <trkpt lat="42.88944" lon="0.17489">
        <ele>2403.2</ele>
        <time>2021-03-23T11:35:51Z</time>
      </trkpt>
      <trkpt lat="42.88943" lon="0.17477">
        <ele>2407.8</ele>
        <time>2021-03-23T11:36:19Z</time>
      </trkpt>
      <trkpt lat="42.88936" lon="0.17467">
        <ele>2409.4</ele>
        <time>2021-03-23T11:36:40Z</time>
      </trkpt>
      <trkpt lat="42.88927" lon="0.17468">
        <ele>2409.7</ele>
        <time>2021-03-23T11:36:53Z</time>
      </trkpt>
      <trkpt lat="42.88922" lon="0.17479">
        <ele>2409.5</ele>
        <time>2021-03-23T11:37:19Z</time>
      </trkpt>
      <trkpt lat="42.88918" lon="0.1749">
        <ele>2413.8</ele>
        <time>2021-03-23T11:37:51Z</time>
      </trkpt>
      <trkpt lat="42.88918" lon="0.17503">
        <ele>2414.2</ele>
        <time>2021-03-23T11:38:08Z</time>
      </trkpt>
      <trkpt lat="42.88915" lon="0.17515">
        <ele>2415.9</ele>
        <time>2021-03-23T11:38:25Z</time>
      </trkpt>
      <trkpt lat="42.88914" lon="0.17527">
        <ele>2416.3</ele>
        <time>2021-03-23T11:38:47Z</time>
      </trkpt>
      <trkpt lat="42.88904" lon="0.17525">
        <ele>2419.6</ele>
        <time>2021-03-23T11:39:15Z</time>
      </trkpt>
      <trkpt lat="42.88896" lon="0.17519">
        <ele>2422.2</ele>
        <time>2021-03-23T11:39:34Z</time>
      </trkpt>
      <trkpt lat="42.88889" lon="0.17512">
        <ele>2424.8</ele>
        <time>2021-03-23T11:40:02Z</time>
      </trkpt>
      <trkpt lat="42.88882" lon="0.1752">
        <ele>2426.7</ele>
        <time>2021-03-23T11:40:45Z</time>
      </trkpt>
      <trkpt lat="42.88879" lon="0.17532">
        <ele>2428.6</ele>
        <time>2021-03-23T11:41:01Z</time>
      </trkpt>
      <trkpt lat="42.88878" lon="0.17544">
        <ele>2431.4</ele>
        <time>2021-03-23T11:41:19Z</time>
      </trkpt>
      <trkpt lat="42.88875" lon="0.17556">
        <ele>2433</ele>
        <time>2021-03-23T11:41:52Z</time>
      </trkpt>
      <trkpt lat="42.88869" lon="0.17567">
        <ele>2435</ele>
        <time>2021-03-23T11:42:09Z</time>
      </trkpt>
      <trkpt lat="42.88862" lon="0.17575">
        <ele>2436.5</ele>
        <time>2021-03-23T11:42:28Z</time>
      </trkpt>
      <trkpt lat="42.88855" lon="0.17584">
        <ele>2438.2</ele>
        <time>2021-03-23T11:42:45Z</time>
      </trkpt>
      <trkpt lat="42.88847" lon="0.17578">
        <ele>2442.9</ele>
        <time>2021-03-23T11:43:48Z</time>
      </trkpt>
      <trkpt lat="42.8884" lon="0.17571">
        <ele>2446.2</ele>
        <time>2021-03-23T11:44:11Z</time>
      </trkpt>
      <trkpt lat="42.88834" lon="0.17581">
        <ele>2448</ele>
        <time>2021-03-23T11:44:40Z</time>
      </trkpt>
      <trkpt lat="42.88832" lon="0.17593">
        <ele>2451.4</ele>
        <time>2021-03-23T11:45:14Z</time>
      </trkpt>
      <trkpt lat="42.88826" lon="0.17583">
        <ele>2452.9</ele>
        <time>2021-03-23T11:45:43Z</time>
      </trkpt>
      <trkpt lat="42.88819" lon="0.17592">
        <ele>2456.7</ele>
        <time>2021-03-23T11:46:32Z</time>
      </trkpt>
      <trkpt lat="42.88815" lon="0.17603">
        <ele>2459.8</ele>
        <time>2021-03-23T11:46:51Z</time>
      </trkpt>
      <trkpt lat="42.88807" lon="0.17608">
        <ele>2462.9</ele>
        <time>2021-03-23T11:48:00Z</time>
      </trkpt>
      <trkpt lat="42.88802" lon="0.17597">
        <ele>2465.4</ele>
        <time>2021-03-23T11:48:36Z</time>
      </trkpt>
      <trkpt lat="42.88799" lon="0.17585">
        <ele>2469.3</ele>
        <time>2021-03-23T11:48:59Z</time>
      </trkpt>
      <trkpt lat="42.88794" lon="0.17595">
        <ele>2474.3</ele>
        <time>2021-03-23T11:50:15Z</time>
      </trkpt>
      <trkpt lat="42.88793" lon="0.17608">
        <ele>2476.3</ele>
        <time>2021-03-23T11:50:34Z</time>
      </trkpt>
      <trkpt lat="42.88793" lon="0.17621">
        <ele>2477.8</ele>
        <time>2021-03-23T11:51:05Z</time>
      </trkpt>
      <trkpt lat="42.88792" lon="0.17634">
        <ele>2480.1</ele>
        <time>2021-03-23T11:51:20Z</time>
      </trkpt>
      <trkpt lat="42.88783" lon="0.17628">
        <ele>2485.6</ele>
        <time>2021-03-23T11:52:37Z</time>
      </trkpt>
      <trkpt lat="42.88778" lon="0.17618">
        <ele>2489</ele>
        <time>2021-03-23T11:53:21Z</time>
      </trkpt>
      <trkpt lat="42.88776" lon="0.1763">
        <ele>2493.3</ele>
        <time>2021-03-23T11:54:13Z</time>
      </trkpt>
      <trkpt lat="42.88774" lon="0.17643">
        <ele>2496.8</ele>
        <time>2021-03-23T11:54:48Z</time>
      </trkpt>
      <trkpt lat="42.88767" lon="0.17633">
        <ele>2497.9</ele>
        <time>2021-03-23T11:55:28Z</time>
      </trkpt>
      <trkpt lat="42.88762" lon="0.17623">
        <ele>2500.1</ele>
        <time>2021-03-23T11:55:46Z</time>
      </trkpt>
      <trkpt lat="42.88762" lon="0.17636">
        <ele>2502.2</ele>
        <time>2021-03-23T11:56:32Z</time>
      </trkpt>
      <trkpt lat="42.88761" lon="0.17648">
        <ele>2505.1</ele>
        <time>2021-03-23T11:56:54Z</time>
      </trkpt>
      <trkpt lat="42.88755" lon="0.17639">
        <ele>2509</ele>
        <time>2021-03-23T11:57:57Z</time>
      </trkpt>
      <trkpt lat="42.88748" lon="0.17648">
        <ele>2514.1</ele>
        <time>2021-03-23T11:59:17Z</time>
      </trkpt>
      <trkpt lat="42.88746" lon="0.17661">
        <ele>2516.9</ele>
        <time>2021-03-23T11:59:38Z</time>
      </trkpt>
      <trkpt lat="42.88745" lon="0.17674">
        <ele>2519.2</ele>
        <time>2021-03-23T12:00:23Z</time>
      </trkpt>
      <trkpt lat="42.88743" lon="0.17686">
        <ele>2522.1</ele>
        <time>2021-03-23T12:01:02Z</time>
      </trkpt>
      <trkpt lat="42.88742" lon="0.17698">
        <ele>2525.7</ele>
        <time>2021-03-23T12:01:48Z</time>
      </trkpt>
      <trkpt lat="42.88733" lon="0.17704">
        <ele>2529.9</ele>
        <time>2021-03-23T12:06:11Z</time>
      </trkpt>
      <trkpt lat="42.88725" lon="0.17708">
        <ele>2532.9</ele>
        <time>2021-03-23T12:07:01Z</time>
      </trkpt>
      <trkpt lat="42.88721" lon="0.17697">
        <ele>2537.7</ele>
        <time>2021-03-23T12:09:11Z</time>
      </trkpt>
      <trkpt lat="42.88727" lon="0.17688">
        <ele>2542.1</ele>
        <time>2021-03-23T12:10:01Z</time>
      </trkpt>
      <trkpt lat="42.88718" lon="0.17693">
        <ele>2539.1</ele>
        <time>2021-03-23T12:33:06Z</time>
      </trkpt>
      <trkpt lat="42.88722" lon="0.17704">
        <ele>2534.8</ele>
        <time>2021-03-23T12:33:57Z</time>
      </trkpt>
      <trkpt lat="42.88729" lon="0.17711">
        <ele>2534</ele>
        <time>2021-03-23T12:35:31Z</time>
      </trkpt>
      <trkpt lat="42.88721" lon="0.17706">
        <ele>2533.9</ele>
        <time>2021-03-23T12:43:30Z</time>
      </trkpt>
      <trkpt lat="42.88731" lon="0.1771">
        <ele>2534.2</ele>
        <time>2021-03-23T12:47:37Z</time>
      </trkpt>
      <trkpt lat="42.88741" lon="0.17707">
        <ele>2531.2</ele>
        <time>2021-03-23T12:48:38Z</time>
      </trkpt>
      <trkpt lat="42.88746" lon="0.17696">
        <ele>2528.3</ele>
        <time>2021-03-23T12:48:54Z</time>
      </trkpt>
      <trkpt lat="42.88749" lon="0.17683">
        <ele>2527.1</ele>
        <time>2021-03-23T12:48:58Z</time>
      </trkpt>
      <trkpt lat="42.88751" lon="0.17669">
        <ele>2525.8</ele>
        <time>2021-03-23T12:49:01Z</time>
      </trkpt>
      <trkpt lat="42.88751" lon="0.17657">
        <ele>2523.2</ele>
        <time>2021-03-23T12:49:06Z</time>
      </trkpt>
      <trkpt lat="42.88756" lon="0.17646">
        <ele>2517.8</ele>
        <time>2021-03-23T12:49:26Z</time>
      </trkpt>
      <trkpt lat="42.88767" lon="0.17645">
        <ele>2515.2</ele>
        <time>2021-03-23T12:49:34Z</time>
      </trkpt>
      <trkpt lat="42.8877" lon="0.17631">
        <ele>2505.8</ele>
        <time>2021-03-23T12:49:58Z</time>
      </trkpt>
      <trkpt lat="42.88779" lon="0.17626">
        <ele>2503.4</ele>
        <time>2021-03-23T12:50:04Z</time>
      </trkpt>
      <trkpt lat="42.88788" lon="0.17625">
        <ele>2487.3</ele>
        <time>2021-03-23T12:50:49Z</time>
      </trkpt>
      <trkpt lat="42.8879" lon="0.17612">
        <ele>2483.8</ele>
        <time>2021-03-23T12:50:57Z</time>
      </trkpt>
      <trkpt lat="42.88794" lon="0.17599">
        <ele>2482</ele>
        <time>2021-03-23T12:51:02Z</time>
      </trkpt>
      <trkpt lat="42.88799" lon="0.17585">
        <ele>2479</ele>
        <time>2021-03-23T12:51:08Z</time>
      </trkpt>
      <trkpt lat="42.88807" lon="0.17592">
        <ele>2477.1</ele>
        <time>2021-03-23T12:51:12Z</time>
      </trkpt>
      <trkpt lat="42.88817" lon="0.17591">
        <ele>2472</ele>
        <time>2021-03-23T12:51:18Z</time>
      </trkpt>
      <trkpt lat="42.88821" lon="0.1758">
        <ele>2469.3</ele>
        <time>2021-03-23T12:51:21Z</time>
      </trkpt>
      <trkpt lat="42.88829" lon="0.17569">
        <ele>2466.4</ele>
        <time>2021-03-23T12:51:24Z</time>
      </trkpt>
      <trkpt lat="42.88839" lon="0.1758">
        <ele>2463.7</ele>
        <time>2021-03-23T12:51:27Z</time>
      </trkpt>
      <trkpt lat="42.88849" lon="0.17567">
        <ele>2459.9</ele>
        <time>2021-03-23T12:51:30Z</time>
      </trkpt>
      <trkpt lat="42.88859" lon="0.17558">
        <ele>2457.3</ele>
        <time>2021-03-23T12:51:32Z</time>
      </trkpt>
      <trkpt lat="42.8887" lon="0.17554">
        <ele>2454.4</ele>
        <time>2021-03-23T12:51:34Z</time>
      </trkpt>
      <trkpt lat="42.88876" lon="0.17542">
        <ele>2433.2</ele>
        <time>2021-03-23T12:52:40Z</time>
      </trkpt>
      <trkpt lat="42.88883" lon="0.17529">
        <ele>2433.2</ele>
        <time>2021-03-23T12:52:43Z</time>
      </trkpt>
      <trkpt lat="42.88889" lon="0.17519">
        <ele>2433.1</ele>
        <time>2021-03-23T12:52:45Z</time>
      </trkpt>
      <trkpt lat="42.88896" lon="0.1751">
        <ele>2432.3</ele>
        <time>2021-03-23T12:52:47Z</time>
      </trkpt>
      <trkpt lat="42.88904" lon="0.17502">
        <ele>2431</ele>
        <time>2021-03-23T12:52:49Z</time>
      </trkpt>
      <trkpt lat="42.88913" lon="0.17495">
        <ele>2429.4</ele>
        <time>2021-03-23T12:52:51Z</time>
      </trkpt>
      <trkpt lat="42.88921" lon="0.17486">
        <ele>2427.7</ele>
        <time>2021-03-23T12:52:53Z</time>
      </trkpt>
      <trkpt lat="42.8893" lon="0.17478">
        <ele>2425.5</ele>
        <time>2021-03-23T12:52:55Z</time>
      </trkpt>
      <trkpt lat="42.8894" lon="0.17473">
        <ele>2423.1</ele>
        <time>2021-03-23T12:52:57Z</time>
      </trkpt>
      <trkpt lat="42.88953" lon="0.17469">
        <ele>2419.5</ele>
        <time>2021-03-23T12:53:00Z</time>
      </trkpt>
      <trkpt lat="42.88966" lon="0.17473">
        <ele>2416.1</ele>
        <time>2021-03-23T12:53:03Z</time>
      </trkpt>
      <trkpt lat="42.88977" lon="0.17478">
        <ele>2414</ele>
        <time>2021-03-23T12:53:05Z</time>
      </trkpt>
      <trkpt lat="42.88986" lon="0.17486">
        <ele>2411.8</ele>
        <time>2021-03-23T12:53:07Z</time>
      </trkpt>
      <trkpt lat="42.88993" lon="0.17493">
        <ele>2409.9</ele>
        <time>2021-03-23T12:53:09Z</time>
      </trkpt>
      <trkpt lat="42.89004" lon="0.175">
        <ele>2406.7</ele>
        <time>2021-03-23T12:53:12Z</time>
      </trkpt>
      <trkpt lat="42.89006" lon="0.17514">
        <ele>2393.3</ele>
        <time>2021-03-23T12:53:48Z</time>
      </trkpt>
      <trkpt lat="42.8901" lon="0.17533">
        <ele>2393</ele>
        <time>2021-03-23T12:53:50Z</time>
      </trkpt>
      <trkpt lat="42.89005" lon="0.17551">
        <ele>2391.8</ele>
        <time>2021-03-23T12:53:52Z</time>
      </trkpt>
      <trkpt lat="42.88997" lon="0.17563">
        <ele>2390.4</ele>
        <time>2021-03-23T12:53:54Z</time>
      </trkpt>
      <trkpt lat="42.88992" lon="0.17574">
        <ele>2388.8</ele>
        <time>2021-03-23T12:53:56Z</time>
      </trkpt>
      <trkpt lat="42.88991" lon="0.17588">
        <ele>2386.9</ele>
        <time>2021-03-23T12:53:58Z</time>
      </trkpt>
      <trkpt lat="42.8899" lon="0.17603">
        <ele>2384.4</ele>
        <time>2021-03-23T12:54:01Z</time>
      </trkpt>
      <trkpt lat="42.88993" lon="0.17615">
        <ele>2374.7</ele>
        <time>2021-03-23T12:54:31Z</time>
      </trkpt>
      <trkpt lat="42.88996" lon="0.17627">
        <ele>2374.7</ele>
        <time>2021-03-23T12:57:30Z</time>
      </trkpt>
      <trkpt lat="42.88996" lon="0.1764">
        <ele>2373.6</ele>
        <time>2021-03-23T12:57:37Z</time>
      </trkpt>
      <trkpt lat="42.88999" lon="0.17655">
        <ele>2372.9</ele>
        <time>2021-03-23T12:57:40Z</time>
      </trkpt>
      <trkpt lat="42.89001" lon="0.17667">
        <ele>2371.7</ele>
        <time>2021-03-23T12:57:43Z</time>
      </trkpt>
      <trkpt lat="42.88994" lon="0.17677">
        <ele>2370.3</ele>
        <time>2021-03-23T12:57:46Z</time>
      </trkpt>
      <trkpt lat="42.89001" lon="0.1769">
        <ele>2368</ele>
        <time>2021-03-23T12:57:49Z</time>
      </trkpt>
      <trkpt lat="42.89007" lon="0.17703">
        <ele>2366.2</ele>
        <time>2021-03-23T12:57:51Z</time>
      </trkpt>
      <trkpt lat="42.89012" lon="0.17713">
        <ele>2364.3</ele>
        <time>2021-03-23T12:57:53Z</time>
      </trkpt>
      <trkpt lat="42.89018" lon="0.17723">
        <ele>2359.9</ele>
        <time>2021-03-23T12:57:59Z</time>
      </trkpt>
      <trkpt lat="42.89026" lon="0.17732">
        <ele>2355</ele>
        <time>2021-03-23T12:58:14Z</time>
      </trkpt>
      <trkpt lat="42.89033" lon="0.17742">
        <ele>2353.9</ele>
        <time>2021-03-23T12:58:21Z</time>
      </trkpt>
      <trkpt lat="42.89041" lon="0.17751">
        <ele>2353.3</ele>
        <time>2021-03-23T12:58:28Z</time>
      </trkpt>
      <trkpt lat="42.89048" lon="0.17759">
        <ele>2350.6</ele>
        <time>2021-03-23T12:58:48Z</time>
      </trkpt>
      <trkpt lat="42.89048" lon="0.17746">
        <ele>2349.8</ele>
        <time>2021-03-23T12:59:04Z</time>
      </trkpt>
      <trkpt lat="42.89048" lon="0.17732">
        <ele>2349.4</ele>
        <time>2021-03-23T12:59:09Z</time>
      </trkpt>
      <trkpt lat="42.89049" lon="0.17717">
        <ele>2349.1</ele>
        <time>2021-03-23T12:59:12Z</time>
      </trkpt>
      <trkpt lat="42.89051" lon="0.17703">
        <ele>2348.3</ele>
        <time>2021-03-23T12:59:15Z</time>
      </trkpt>
      <trkpt lat="42.89053" lon="0.17688">
        <ele>2346.4</ele>
        <time>2021-03-23T12:59:21Z</time>
      </trkpt>
      <trkpt lat="42.89057" lon="0.17676">
        <ele>2342</ele>
        <time>2021-03-23T12:59:36Z</time>
      </trkpt>
      <trkpt lat="42.89067" lon="0.1768">
        <ele>2339.9</ele>
        <time>2021-03-23T12:59:41Z</time>
      </trkpt>
      <trkpt lat="42.89074" lon="0.17672">
        <ele>2332.1</ele>
        <time>2021-03-23T12:59:49Z</time>
      </trkpt>
      <trkpt lat="42.89079" lon="0.1766">
        <ele>2322.4</ele>
        <time>2021-03-23T13:00:12Z</time>
      </trkpt>
      <trkpt lat="42.89085" lon="0.1765">
        <ele>2320.7</ele>
        <time>2021-03-23T13:00:17Z</time>
      </trkpt>
      <trkpt lat="42.89098" lon="0.17649">
        <ele>2319.4</ele>
        <time>2021-03-23T13:00:20Z</time>
      </trkpt>
      <trkpt lat="42.89108" lon="0.17652">
        <ele>2317.8</ele>
        <time>2021-03-23T13:00:22Z</time>
      </trkpt>
      <trkpt lat="42.89117" lon="0.17655">
        <ele>2315.4</ele>
        <time>2021-03-23T13:00:24Z</time>
      </trkpt>
      <trkpt lat="42.89126" lon="0.1766">
        <ele>2312.3</ele>
        <time>2021-03-23T13:00:26Z</time>
      </trkpt>
      <trkpt lat="42.89138" lon="0.17664">
        <ele>2308.9</ele>
        <time>2021-03-23T13:00:28Z</time>
      </trkpt>
      <trkpt lat="42.89151" lon="0.1767">
        <ele>2305.1</ele>
        <time>2021-03-23T13:00:30Z</time>
      </trkpt>
      <trkpt lat="42.89165" lon="0.17681">
        <ele>2300.7</ele>
        <time>2021-03-23T13:00:32Z</time>
      </trkpt>
      <trkpt lat="42.89179" lon="0.17688">
        <ele>2296.4</ele>
        <time>2021-03-23T13:00:34Z</time>
      </trkpt>
      <trkpt lat="42.89191" lon="0.17693">
        <ele>2292.1</ele>
        <time>2021-03-23T13:00:36Z</time>
      </trkpt>
      <trkpt lat="42.89202" lon="0.17697">
        <ele>2286</ele>
        <time>2021-03-23T13:00:39Z</time>
      </trkpt>
      <trkpt lat="42.89212" lon="0.17699">
        <ele>2281.2</ele>
        <time>2021-03-23T13:00:42Z</time>
      </trkpt>
      <trkpt lat="42.89224" lon="0.177">
        <ele>2278.4</ele>
        <time>2021-03-23T13:00:44Z</time>
      </trkpt>
      <trkpt lat="42.89237" lon="0.17702">
        <ele>2275.9</ele>
        <time>2021-03-23T13:00:46Z</time>
      </trkpt>
      <trkpt lat="42.89247" lon="0.17703">
        <ele>2272.3</ele>
        <time>2021-03-23T13:00:49Z</time>
      </trkpt>
      <trkpt lat="42.89257" lon="0.17702">
        <ele>2268.4</ele>
        <time>2021-03-23T13:00:53Z</time>
      </trkpt>
      <trkpt lat="42.89266" lon="0.17707">
        <ele>2260.9</ele>
        <time>2021-03-23T13:02:24Z</time>
      </trkpt>
      <trkpt lat="42.89273" lon="0.17716">
        <ele>2260.7</ele>
        <time>2021-03-23T13:02:27Z</time>
      </trkpt>
      <trkpt lat="42.89282" lon="0.17725">
        <ele>2260.5</ele>
        <time>2021-03-23T13:02:29Z</time>
      </trkpt>
      <trkpt lat="42.89294" lon="0.17728">
        <ele>2259.8</ele>
        <time>2021-03-23T13:02:31Z</time>
      </trkpt>
      <trkpt lat="42.89304" lon="0.17727">
        <ele>2258.8</ele>
        <time>2021-03-23T13:02:33Z</time>
      </trkpt>
      <trkpt lat="42.89312" lon="0.17735">
        <ele>2255.7</ele>
        <time>2021-03-23T13:02:39Z</time>
      </trkpt>
      <trkpt lat="42.89321" lon="0.17737">
        <ele>2250.1</ele>
        <time>2021-03-23T13:04:47Z</time>
      </trkpt>
      <trkpt lat="42.89332" lon="0.17736">
        <ele>2249.7</ele>
        <time>2021-03-23T13:04:49Z</time>
      </trkpt>
      <trkpt lat="42.89342" lon="0.17739">
        <ele>2249.3</ele>
        <time>2021-03-23T13:04:51Z</time>
      </trkpt>
      <trkpt lat="42.89348" lon="0.1775">
        <ele>2247.7</ele>
        <time>2021-03-23T13:04:53Z</time>
      </trkpt>
      <trkpt lat="42.89352" lon="0.17765">
        <ele>2246</ele>
        <time>2021-03-23T13:04:55Z</time>
      </trkpt>
      <trkpt lat="42.89351" lon="0.17782">
        <ele>2244.1</ele>
        <time>2021-03-23T13:04:57Z</time>
      </trkpt>
      <trkpt lat="42.89347" lon="0.17801">
        <ele>2241.7</ele>
        <time>2021-03-23T13:04:59Z</time>
      </trkpt>
      <trkpt lat="42.89348" lon="0.17823">
        <ele>2239.1</ele>
        <time>2021-03-23T13:05:01Z</time>
      </trkpt>
      <trkpt lat="42.89353" lon="0.17846">
        <ele>2236.3</ele>
        <time>2021-03-23T13:05:03Z</time>
      </trkpt>
      <trkpt lat="42.8936" lon="0.17866">
        <ele>2233.2</ele>
        <time>2021-03-23T13:05:05Z</time>
      </trkpt>
      <trkpt lat="42.89367" lon="0.17881">
        <ele>2230.4</ele>
        <time>2021-03-23T13:05:07Z</time>
      </trkpt>
      <trkpt lat="42.89372" lon="0.17895">
        <ele>2228</ele>
        <time>2021-03-23T13:05:09Z</time>
      </trkpt>
      <trkpt lat="42.89377" lon="0.17908">
        <ele>2225.8</ele>
        <time>2021-03-23T13:05:11Z</time>
      </trkpt>
      <trkpt lat="42.89381" lon="0.17922">
        <ele>2223</ele>
        <time>2021-03-23T13:05:14Z</time>
      </trkpt>
      <trkpt lat="42.89386" lon="0.17932">
        <ele>2217.8</ele>
        <time>2021-03-23T13:05:24Z</time>
      </trkpt>
      <trkpt lat="42.89393" lon="0.17943">
        <ele>2216.3</ele>
        <time>2021-03-23T13:05:30Z</time>
      </trkpt>
      <trkpt lat="42.89398" lon="0.17956">
        <ele>2215.5</ele>
        <time>2021-03-23T13:05:34Z</time>
      </trkpt>
      <trkpt lat="42.89402" lon="0.17968">
        <ele>2212.1</ele>
        <time>2021-03-23T13:05:56Z</time>
      </trkpt>
      <trkpt lat="42.89404" lon="0.17981">
        <ele>2211.9</ele>
        <time>2021-03-23T13:05:58Z</time>
      </trkpt>
      <trkpt lat="42.89404" lon="0.17995">
        <ele>2211.5</ele>
        <time>2021-03-23T13:06:00Z</time>
      </trkpt>
      <trkpt lat="42.89402" lon="0.18008">
        <ele>2211</ele>
        <time>2021-03-23T13:06:02Z</time>
      </trkpt>
      <trkpt lat="42.89401" lon="0.18023">
        <ele>2210.3</ele>
        <time>2021-03-23T13:06:04Z</time>
      </trkpt>
      <trkpt lat="42.89401" lon="0.18037">
        <ele>2209.5</ele>
        <time>2021-03-23T13:06:06Z</time>
      </trkpt>
      <trkpt lat="42.89398" lon="0.18049">
        <ele>2203</ele>
        <time>2021-03-23T13:06:28Z</time>
      </trkpt>
      <trkpt lat="42.89395" lon="0.18062">
        <ele>2202.3</ele>
        <time>2021-03-23T13:06:41Z</time>
      </trkpt>
      <trkpt lat="42.89394" lon="0.18076">
        <ele>2202</ele>
        <time>2021-03-23T13:06:53Z</time>
      </trkpt>
      <trkpt lat="42.8939" lon="0.18088">
        <ele>2201.3</ele>
        <time>2021-03-23T13:07:00Z</time>
      </trkpt>
      <trkpt lat="42.89384" lon="0.181">
        <ele>2198.9</ele>
        <time>2021-03-23T13:07:48Z</time>
      </trkpt>
      <trkpt lat="42.8938" lon="0.18112">
        <ele>2198.5</ele>
        <time>2021-03-23T13:07:52Z</time>
      </trkpt>
      <trkpt lat="42.89374" lon="0.18124">
        <ele>2197.2</ele>
        <time>2021-03-23T13:07:57Z</time>
      </trkpt>
      <trkpt lat="42.89375" lon="0.18139">
        <ele>2194.8</ele>
        <time>2021-03-23T13:08:04Z</time>
      </trkpt>
      <trkpt lat="42.89384" lon="0.18148">
        <ele>2193</ele>
        <time>2021-03-23T13:08:08Z</time>
      </trkpt>
      <trkpt lat="42.89393" lon="0.18147">
        <ele>2190</ele>
        <time>2021-03-23T13:08:11Z</time>
      </trkpt>
      <trkpt lat="42.89405" lon="0.18146">
        <ele>2174.4</ele>
        <time>2021-03-23T13:09:01Z</time>
      </trkpt>
      <trkpt lat="42.89415" lon="0.18141">
        <ele>2173.8</ele>
        <time>2021-03-23T13:09:04Z</time>
      </trkpt>
      <trkpt lat="42.8942" lon="0.18153">
        <ele>2170.3</ele>
        <time>2021-03-23T13:09:11Z</time>
      </trkpt>
      <trkpt lat="42.89417" lon="0.18167">
        <ele>2166.8</ele>
        <time>2021-03-23T13:09:15Z</time>
      </trkpt>
      <trkpt lat="42.89424" lon="0.18174">
        <ele>2161.7</ele>
        <time>2021-03-23T13:09:20Z</time>
      </trkpt>
      <trkpt lat="42.89416" lon="0.18181">
        <ele>2146.7</ele>
        <time>2021-03-23T13:09:58Z</time>
      </trkpt>
      <trkpt lat="42.89411" lon="0.18192">
        <ele>2145.8</ele>
        <time>2021-03-23T13:10:03Z</time>
      </trkpt>
      <trkpt lat="42.89417" lon="0.18202">
        <ele>2143.7</ele>
        <time>2021-03-23T13:10:08Z</time>
      </trkpt>
      <trkpt lat="42.89422" lon="0.18213">
        <ele>2139.8</ele>
        <time>2021-03-23T13:10:13Z</time>
      </trkpt>
      <trkpt lat="42.89433" lon="0.18217">
        <ele>2135.3</ele>
        <time>2021-03-23T13:10:17Z</time>
      </trkpt>
      <trkpt lat="42.8943" lon="0.1823">
        <ele>2115.2</ele>
        <time>2021-03-23T13:11:27Z</time>
      </trkpt>
      <trkpt lat="42.89426" lon="0.18242">
        <ele>2114.8</ele>
        <time>2021-03-23T13:11:32Z</time>
      </trkpt>
      <trkpt lat="42.89435" lon="0.18244">
        <ele>2113.9</ele>
        <time>2021-03-23T13:11:35Z</time>
      </trkpt>
      <trkpt lat="42.89439" lon="0.18256">
        <ele>2112.6</ele>
        <time>2021-03-23T13:11:38Z</time>
      </trkpt>
      <trkpt lat="42.89446" lon="0.18266">
        <ele>2110.6</ele>
        <time>2021-03-23T13:11:41Z</time>
      </trkpt>
      <trkpt lat="42.89452" lon="0.18277">
        <ele>2107.4</ele>
        <time>2021-03-23T13:11:44Z</time>
      </trkpt>
      <trkpt lat="42.89459" lon="0.18289">
        <ele>2102.7</ele>
        <time>2021-03-23T13:11:47Z</time>
      </trkpt>
      <trkpt lat="42.89467" lon="0.18296">
        <ele>2098</ele>
        <time>2021-03-23T13:11:50Z</time>
      </trkpt>
      <trkpt lat="42.89475" lon="0.18302">
        <ele>2075.8</ele>
        <time>2021-03-23T13:13:22Z</time>
      </trkpt>
      <trkpt lat="42.89486" lon="0.18304">
        <ele>2075.2</ele>
        <time>2021-03-23T13:13:31Z</time>
      </trkpt>
      <trkpt lat="42.89493" lon="0.18313">
        <ele>2074.4</ele>
        <time>2021-03-23T13:13:34Z</time>
      </trkpt>
      <trkpt lat="42.895" lon="0.18321">
        <ele>2073.4</ele>
        <time>2021-03-23T13:13:36Z</time>
      </trkpt>
      <trkpt lat="42.89507" lon="0.18329">
        <ele>2071.8</ele>
        <time>2021-03-23T13:13:38Z</time>
      </trkpt>
      <trkpt lat="42.89517" lon="0.1834">
        <ele>2067.7</ele>
        <time>2021-03-23T13:13:41Z</time>
      </trkpt>
      <trkpt lat="42.89527" lon="0.18351">
        <ele>2063</ele>
        <time>2021-03-23T13:13:44Z</time>
      </trkpt>
      <trkpt lat="42.89534" lon="0.18359">
        <ele>2059.4</ele>
        <time>2021-03-23T13:13:46Z</time>
      </trkpt>
      <trkpt lat="42.89542" lon="0.18368">
        <ele>2055.8</ele>
        <time>2021-03-23T13:13:48Z</time>
      </trkpt>
      <trkpt lat="42.89551" lon="0.18383">
        <ele>2050.3</ele>
        <time>2021-03-23T13:13:51Z</time>
      </trkpt>
      <trkpt lat="42.89563" lon="0.18384">
        <ele>2046.9</ele>
        <time>2021-03-23T13:13:53Z</time>
      </trkpt>
      <trkpt lat="42.89577" lon="0.18388">
        <ele>2043.8</ele>
        <time>2021-03-23T13:13:55Z</time>
      </trkpt>
      <trkpt lat="42.8959" lon="0.18393">
        <ele>2040.6</ele>
        <time>2021-03-23T13:13:57Z</time>
      </trkpt>
      <trkpt lat="42.89605" lon="0.18394">
        <ele>2037.5</ele>
        <time>2021-03-23T13:13:59Z</time>
      </trkpt>
      <trkpt lat="42.89621" lon="0.18394">
        <ele>2034.3</ele>
        <time>2021-03-23T13:14:01Z</time>
      </trkpt>
      <trkpt lat="42.89639" lon="0.18394">
        <ele>2031.8</ele>
        <time>2021-03-23T13:14:03Z</time>
      </trkpt>
      <trkpt lat="42.89655" lon="0.18394">
        <ele>2029.1</ele>
        <time>2021-03-23T13:14:05Z</time>
      </trkpt>
      <trkpt lat="42.89668" lon="0.18393">
        <ele>2026.8</ele>
        <time>2021-03-23T13:14:07Z</time>
      </trkpt>
      <trkpt lat="42.89678" lon="0.18391">
        <ele>2023.8</ele>
        <time>2021-03-23T13:14:10Z</time>
      </trkpt>
      <trkpt lat="42.89687" lon="0.18398">
        <ele>2013.5</ele>
        <time>2021-03-23T13:15:46Z</time>
      </trkpt>
      <trkpt lat="42.89701" lon="0.18395">
        <ele>2013.3</ele>
        <time>2021-03-23T13:15:48Z</time>
      </trkpt>
      <trkpt lat="42.8971" lon="0.18392">
        <ele>2013</ele>
        <time>2021-03-23T13:15:49Z</time>
      </trkpt>
      <trkpt lat="42.89719" lon="0.18389">
        <ele>2012.7</ele>
        <time>2021-03-23T13:15:50Z</time>
      </trkpt>
      <trkpt lat="42.89734" lon="0.18383">
        <ele>2011.9</ele>
        <time>2021-03-23T13:15:52Z</time>
      </trkpt>
      <trkpt lat="42.89751" lon="0.18384">
        <ele>2010.8</ele>
        <time>2021-03-23T13:15:54Z</time>
      </trkpt>
      <trkpt lat="42.89765" lon="0.1839">
        <ele>2009.7</ele>
        <time>2021-03-23T13:15:56Z</time>
      </trkpt>
      <trkpt lat="42.89783" lon="0.18396">
        <ele>2007</ele>
        <time>2021-03-23T13:15:59Z</time>
      </trkpt>
      <trkpt lat="42.89799" lon="0.18399">
        <ele>2006</ele>
        <time>2021-03-23T13:16:02Z</time>
      </trkpt>
      <trkpt lat="42.8981" lon="0.18395">
        <ele>2004.3</ele>
        <time>2021-03-23T13:16:05Z</time>
      </trkpt>
      <trkpt lat="42.89819" lon="0.18396">
        <ele>2001.2</ele>
        <time>2021-03-23T13:16:15Z</time>
      </trkpt>
      <trkpt lat="42.89828" lon="0.18391">
        <ele>2000.6</ele>
        <time>2021-03-23T13:16:29Z</time>
      </trkpt>
      <trkpt lat="42.89833" lon="0.1838">
        <ele>1999.4</ele>
        <time>2021-03-23T13:16:57Z</time>
      </trkpt>
      <trkpt lat="42.89842" lon="0.18374">
        <ele>2001</ele>
        <time>2021-03-23T13:18:07Z</time>
      </trkpt>
      <trkpt lat="42.89853" lon="0.18375">
        <ele>2000</ele>
        <time>2021-03-23T13:18:36Z</time>
      </trkpt>
      <trkpt lat="42.89862" lon="0.18377">
        <ele>1999.8</ele>
        <time>2021-03-23T13:19:07Z</time>
      </trkpt>
      <trkpt lat="42.89867" lon="0.18366">
        <ele>2000.9</ele>
        <time>2021-03-23T13:20:11Z</time>
      </trkpt>
      <trkpt lat="42.89877" lon="0.18361">
        <ele>2001</ele>
        <time>2021-03-23T13:20:19Z</time>
      </trkpt>
      <trkpt lat="42.89886" lon="0.18357">
        <ele>2001</ele>
        <time>2021-03-23T13:20:27Z</time>
      </trkpt>
      <trkpt lat="42.89896" lon="0.18353">
        <ele>2000.8</ele>
        <time>2021-03-23T13:20:34Z</time>
      </trkpt>
      <trkpt lat="42.89904" lon="0.18349">
        <ele>2000.3</ele>
        <time>2021-03-23T13:20:53Z</time>
      </trkpt>
      <trkpt lat="42.89913" lon="0.18345">
        <ele>2000</ele>
        <time>2021-03-23T13:21:03Z</time>
      </trkpt>
      <trkpt lat="42.89921" lon="0.18339">
        <ele>1999.8</ele>
        <time>2021-03-23T13:21:06Z</time>
      </trkpt>
      <trkpt lat="42.89933" lon="0.18334">
        <ele>1999.4</ele>
        <time>2021-03-23T13:21:10Z</time>
      </trkpt>
      <trkpt lat="42.89944" lon="0.18333">
        <ele>1998.3</ele>
        <time>2021-03-23T13:21:14Z</time>
      </trkpt>
      <trkpt lat="42.89956" lon="0.18329">
        <ele>1997.5</ele>
        <time>2021-03-23T13:21:16Z</time>
      </trkpt>
      <trkpt lat="42.89965" lon="0.18322">
        <ele>1996.3</ele>
        <time>2021-03-23T13:21:19Z</time>
      </trkpt>
      <trkpt lat="42.89974" lon="0.18324">
        <ele>1992.3</ele>
        <time>2021-03-23T13:21:30Z</time>
      </trkpt>
      <trkpt lat="42.89986" lon="0.18324">
        <ele>1991.5</ele>
        <time>2021-03-23T13:21:34Z</time>
      </trkpt>
      <trkpt lat="42.89998" lon="0.18321">
        <ele>1991.1</ele>
        <time>2021-03-23T13:21:36Z</time>
      </trkpt>
      <trkpt lat="42.9001" lon="0.18316">
        <ele>1990.4</ele>
        <time>2021-03-23T13:21:38Z</time>
      </trkpt>
      <trkpt lat="42.90023" lon="0.18314">
        <ele>1989.1</ele>
        <time>2021-03-23T13:21:41Z</time>
      </trkpt>
      <trkpt lat="42.90036" lon="0.18315">
        <ele>1987.6</ele>
        <time>2021-03-23T13:21:44Z</time>
      </trkpt>
      <trkpt lat="42.90046" lon="0.18315">
        <ele>1986.6</ele>
        <time>2021-03-23T13:21:46Z</time>
      </trkpt>
      <trkpt lat="42.90055" lon="0.18315">
        <ele>1985.5</ele>
        <time>2021-03-23T13:21:48Z</time>
      </trkpt>
      <trkpt lat="42.90064" lon="0.18316">
        <ele>1984.2</ele>
        <time>2021-03-23T13:21:50Z</time>
      </trkpt>
      <trkpt lat="42.90073" lon="0.18323">
        <ele>1977.8</ele>
        <time>2021-03-23T13:22:04Z</time>
      </trkpt>
      <trkpt lat="42.90083" lon="0.18335">
        <ele>1977.2</ele>
        <time>2021-03-23T13:22:07Z</time>
      </trkpt>
      <trkpt lat="42.90086" lon="0.18349">
        <ele>1971.9</ele>
        <time>2021-03-23T13:23:29Z</time>
      </trkpt>
      <trkpt lat="42.90089" lon="0.18361">
        <ele>1971.3</ele>
        <time>2021-03-23T13:23:33Z</time>
      </trkpt>
      <trkpt lat="42.90094" lon="0.18375">
        <ele>1968.1</ele>
        <time>2021-03-23T13:23:46Z</time>
      </trkpt>
      <trkpt lat="42.90098" lon="0.18387">
        <ele>1967.6</ele>
        <time>2021-03-23T13:23:48Z</time>
      </trkpt>
      <trkpt lat="42.90102" lon="0.18399">
        <ele>1967.1</ele>
        <time>2021-03-23T13:23:50Z</time>
      </trkpt>
      <trkpt lat="42.90108" lon="0.18413">
        <ele>1965.9</ele>
        <time>2021-03-23T13:23:53Z</time>
      </trkpt>
      <trkpt lat="42.90113" lon="0.18424">
        <ele>1965</ele>
        <time>2021-03-23T13:23:55Z</time>
      </trkpt>
      <trkpt lat="42.90122" lon="0.18434">
        <ele>1962.8</ele>
        <time>2021-03-23T13:23:59Z</time>
      </trkpt>
      <trkpt lat="42.90131" lon="0.18429">
        <ele>1961.4</ele>
        <time>2021-03-23T13:24:01Z</time>
      </trkpt>
      <trkpt lat="42.90136" lon="0.18413">
        <ele>1958.6</ele>
        <time>2021-03-23T13:24:04Z</time>
      </trkpt>
      <trkpt lat="42.90144" lon="0.184">
        <ele>1955.3</ele>
        <time>2021-03-23T13:24:07Z</time>
      </trkpt>
      <trkpt lat="42.90149" lon="0.18384">
        <ele>1951.2</ele>
        <time>2021-03-23T13:24:10Z</time>
      </trkpt>
      <trkpt lat="42.90154" lon="0.18366">
        <ele>1945.6</ele>
        <time>2021-03-23T13:24:13Z</time>
      </trkpt>
      <trkpt lat="42.90158" lon="0.18354">
        <ele>1941.1</ele>
        <time>2021-03-23T13:24:15Z</time>
      </trkpt>
      <trkpt lat="42.90164" lon="0.18342">
        <ele>1936.6</ele>
        <time>2021-03-23T13:24:17Z</time>
      </trkpt>
      <trkpt lat="42.90162" lon="0.18328">
        <ele>1907</ele>
        <time>2021-03-23T13:25:17Z</time>
      </trkpt>
      <trkpt lat="42.90165" lon="0.18309">
        <ele>1907</ele>
        <time>2021-03-23T13:25:20Z</time>
      </trkpt>
      <trkpt lat="42.90172" lon="0.18297">
        <ele>1906.3</ele>
        <time>2021-03-23T13:25:22Z</time>
      </trkpt>
      <trkpt lat="42.90174" lon="0.18284">
        <ele>1905.3</ele>
        <time>2021-03-23T13:25:24Z</time>
      </trkpt>
      <trkpt lat="42.90176" lon="0.18269">
        <ele>1903.9</ele>
        <time>2021-03-23T13:25:26Z</time>
      </trkpt>
      <trkpt lat="42.90181" lon="0.18254">
        <ele>1902.3</ele>
        <time>2021-03-23T13:25:28Z</time>
      </trkpt>
      <trkpt lat="42.90187" lon="0.18241">
        <ele>1900.6</ele>
        <time>2021-03-23T13:25:30Z</time>
      </trkpt>
      <trkpt lat="42.90191" lon="0.1823">
        <ele>1898.7</ele>
        <time>2021-03-23T13:25:32Z</time>
      </trkpt>
      <trkpt lat="42.90194" lon="0.18218">
        <ele>1896.6</ele>
        <time>2021-03-23T13:25:34Z</time>
      </trkpt>
      <trkpt lat="42.90197" lon="0.18202">
        <ele>1894.6</ele>
        <time>2021-03-23T13:25:36Z</time>
      </trkpt>
      <trkpt lat="42.90203" lon="0.18185">
        <ele>1892.6</ele>
        <time>2021-03-23T13:25:38Z</time>
      </trkpt>
      <trkpt lat="42.90211" lon="0.1817">
        <ele>1890.6</ele>
        <time>2021-03-23T13:25:40Z</time>
      </trkpt>
      <trkpt lat="42.90218" lon="0.18158">
        <ele>1888.3</ele>
        <time>2021-03-23T13:25:42Z</time>
      </trkpt>
      <trkpt lat="42.90226" lon="0.18147">
        <ele>1885.9</ele>
        <time>2021-03-23T13:25:44Z</time>
      </trkpt>
      <trkpt lat="42.90232" lon="0.18133">
        <ele>1883.5</ele>
        <time>2021-03-23T13:25:46Z</time>
      </trkpt>
      <trkpt lat="42.90238" lon="0.18116">
        <ele>1881.2</ele>
        <time>2021-03-23T13:25:48Z</time>
      </trkpt>
      <trkpt lat="42.90248" lon="0.18097">
        <ele>1878.9</ele>
        <time>2021-03-23T13:25:50Z</time>
      </trkpt>
      <trkpt lat="42.90258" lon="0.1808">
        <ele>1876.4</ele>
        <time>2021-03-23T13:25:52Z</time>
      </trkpt>
      <trkpt lat="42.9027" lon="0.18064">
        <ele>1874</ele>
        <time>2021-03-23T13:25:54Z</time>
      </trkpt>
      <trkpt lat="42.90282" lon="0.18051">
        <ele>1871.5</ele>
        <time>2021-03-23T13:25:56Z</time>
      </trkpt>
      <trkpt lat="42.90293" lon="0.1804">
        <ele>1869.2</ele>
        <time>2021-03-23T13:25:58Z</time>
      </trkpt>
      <trkpt lat="42.90302" lon="0.18032">
        <ele>1866.9</ele>
        <time>2021-03-23T13:26:00Z</time>
      </trkpt>
      <trkpt lat="42.90311" lon="0.18025">
        <ele>1855.6</ele>
        <time>2021-03-23T13:26:36Z</time>
      </trkpt>
      <trkpt lat="42.90319" lon="0.18016">
        <ele>1855.5</ele>
        <time>2021-03-23T13:26:38Z</time>
      </trkpt>
      <trkpt lat="42.90331" lon="0.18005">
        <ele>1855.3</ele>
        <time>2021-03-23T13:26:40Z</time>
      </trkpt>
      <trkpt lat="42.90339" lon="0.1799">
        <ele>1854.7</ele>
        <time>2021-03-23T13:26:42Z</time>
      </trkpt>
      <trkpt lat="42.90345" lon="0.17978">
        <ele>1853.9</ele>
        <time>2021-03-23T13:26:44Z</time>
      </trkpt>
      <trkpt lat="42.90355" lon="0.17987">
        <ele>1851.3</ele>
        <time>2021-03-23T13:26:48Z</time>
      </trkpt>
      <trkpt lat="42.90364" lon="0.17993">
        <ele>1849.2</ele>
        <time>2021-03-23T13:26:51Z</time>
      </trkpt>
      <trkpt lat="42.90376" lon="0.17987">
        <ele>1846.9</ele>
        <time>2021-03-23T13:26:54Z</time>
      </trkpt>
      <trkpt lat="42.90381" lon="0.17975">
        <ele>1838.1</ele>
        <time>2021-03-23T13:27:06Z</time>
      </trkpt>
      <trkpt lat="42.90387" lon="0.17959">
        <ele>1836.9</ele>
        <time>2021-03-23T13:27:09Z</time>
      </trkpt>
      <trkpt lat="42.90399" lon="0.17955">
        <ele>1835.4</ele>
        <time>2021-03-23T13:27:12Z</time>
      </trkpt>
      <trkpt lat="42.90412" lon="0.17955">
        <ele>1833</ele>
        <time>2021-03-23T13:27:15Z</time>
      </trkpt>
      <trkpt lat="42.90421" lon="0.17955">
        <ele>1830.5</ele>
        <time>2021-03-23T13:27:17Z</time>
      </trkpt>
      <trkpt lat="42.90431" lon="0.17953">
        <ele>1827.4</ele>
        <time>2021-03-23T13:27:19Z</time>
      </trkpt>
      <trkpt lat="42.90441" lon="0.17955">
        <ele>1824</ele>
        <time>2021-03-23T13:27:21Z</time>
      </trkpt>
      <trkpt lat="42.90451" lon="0.17955">
        <ele>1820.3</ele>
        <time>2021-03-23T13:27:23Z</time>
      </trkpt>
      <trkpt lat="42.9046" lon="0.17956">
        <ele>1815.9</ele>
        <time>2021-03-23T13:27:25Z</time>
      </trkpt>
      <trkpt lat="42.90471" lon="0.17958">
        <ele>1811.3</ele>
        <time>2021-03-23T13:27:27Z</time>
      </trkpt>
      <trkpt lat="42.90483" lon="0.17959">
        <ele>1806.6</ele>
        <time>2021-03-23T13:27:29Z</time>
      </trkpt>
      <trkpt lat="42.90494" lon="0.17959">
        <ele>1801.5</ele>
        <time>2021-03-23T13:27:31Z</time>
      </trkpt>
      <trkpt lat="42.90505" lon="0.17957">
        <ele>1796.4</ele>
        <time>2021-03-23T13:27:33Z</time>
      </trkpt>
      <trkpt lat="42.90517" lon="0.17954">
        <ele>1791.6</ele>
        <time>2021-03-23T13:27:35Z</time>
      </trkpt>
      <trkpt lat="42.90527" lon="0.17951">
        <ele>1787.1</ele>
        <time>2021-03-23T13:27:37Z</time>
      </trkpt>
      <trkpt lat="42.90532" lon="0.17962">
        <ele>1761.4</ele>
        <time>2021-03-23T13:29:29Z</time>
      </trkpt>
      <trkpt lat="42.90527" lon="0.17974">
        <ele>1760.4</ele>
        <time>2021-03-23T13:29:37Z</time>
      </trkpt>
      <trkpt lat="42.90525" lon="0.17988">
        <ele>1759.9</ele>
        <time>2021-03-23T13:29:40Z</time>
      </trkpt>
      <trkpt lat="42.90527" lon="0.18007">
        <ele>1758.4</ele>
        <time>2021-03-23T13:29:43Z</time>
      </trkpt>
      <trkpt lat="42.90533" lon="0.18021">
        <ele>1755.1</ele>
        <time>2021-03-23T13:29:46Z</time>
      </trkpt>
      <trkpt lat="42.90545" lon="0.18018">
        <ele>1752.3</ele>
        <time>2021-03-23T13:29:48Z</time>
      </trkpt>
      <trkpt lat="42.90558" lon="0.18014">
        <ele>1749.3</ele>
        <time>2021-03-23T13:29:50Z</time>
      </trkpt>
      <trkpt lat="42.90571" lon="0.18012">
        <ele>1746.2</ele>
        <time>2021-03-23T13:29:52Z</time>
      </trkpt>
      <trkpt lat="42.90581" lon="0.18018">
        <ele>1743.2</ele>
        <time>2021-03-23T13:29:54Z</time>
      </trkpt>
      <trkpt lat="42.90589" lon="0.1803">
        <ele>1739.9</ele>
        <time>2021-03-23T13:29:56Z</time>
      </trkpt>
      <trkpt lat="42.90602" lon="0.18036">
        <ele>1736.5</ele>
        <time>2021-03-23T13:29:58Z</time>
      </trkpt>
      <trkpt lat="42.90617" lon="0.18044">
        <ele>1732.9</ele>
        <time>2021-03-23T13:30:00Z</time>
      </trkpt>
      <trkpt lat="42.9063" lon="0.18055">
        <ele>1729.1</ele>
        <time>2021-03-23T13:30:02Z</time>
      </trkpt>
      <trkpt lat="42.90642" lon="0.18068">
        <ele>1725.3</ele>
        <time>2021-03-23T13:30:04Z</time>
      </trkpt>
      <trkpt lat="42.90652" lon="0.18071">
        <ele>1721.8</ele>
        <time>2021-03-23T13:30:06Z</time>
      </trkpt>
      <trkpt lat="42.90661" lon="0.18066">
        <ele>1718.6</ele>
        <time>2021-03-23T13:30:08Z</time>
      </trkpt>
      <trkpt lat="42.90668" lon="0.18058">
        <ele>1714.5</ele>
        <time>2021-03-23T13:30:11Z</time>
      </trkpt>
      <trkpt lat="42.90677" lon="0.18053">
        <ele>1702.1</ele>
        <time>2021-03-23T13:30:43Z</time>
      </trkpt>
      <trkpt lat="42.90689" lon="0.18049">
        <ele>1701.9</ele>
        <time>2021-03-23T13:30:46Z</time>
      </trkpt>
      <trkpt lat="42.90703" lon="0.18046">
        <ele>1701.5</ele>
        <time>2021-03-23T13:30:48Z</time>
      </trkpt>
      <trkpt lat="42.90719" lon="0.18043">
        <ele>1700.8</ele>
        <time>2021-03-23T13:30:50Z</time>
      </trkpt>
      <trkpt lat="42.90734" lon="0.18038">
        <ele>1699.5</ele>
        <time>2021-03-23T13:30:52Z</time>
      </trkpt>
      <trkpt lat="42.90746" lon="0.18033">
        <ele>1697.1</ele>
        <time>2021-03-23T13:30:55Z</time>
      </trkpt>
      <trkpt lat="42.90757" lon="0.18039">
        <ele>1694.5</ele>
        <time>2021-03-23T13:30:58Z</time>
      </trkpt>
      <trkpt lat="42.90768" lon="0.18035">
        <ele>1691.8</ele>
        <time>2021-03-23T13:31:01Z</time>
      </trkpt>
      <trkpt lat="42.90774" lon="0.18019">
        <ele>1688.5</ele>
        <time>2021-03-23T13:31:04Z</time>
      </trkpt>
      <trkpt lat="42.90778" lon="0.17999">
        <ele>1686.4</ele>
        <time>2021-03-23T13:31:06Z</time>
      </trkpt>
      <trkpt lat="42.9078" lon="0.17979">
        <ele>1684</ele>
        <time>2021-03-23T13:31:08Z</time>
      </trkpt>
      <trkpt lat="42.90779" lon="0.17959">
        <ele>1681.7</ele>
        <time>2021-03-23T13:31:10Z</time>
      </trkpt>
      <trkpt lat="42.90777" lon="0.17939">
        <ele>1679.4</ele>
        <time>2021-03-23T13:31:12Z</time>
      </trkpt>
      <trkpt lat="42.90779" lon="0.17919">
        <ele>1677</ele>
        <time>2021-03-23T13:31:14Z</time>
      </trkpt>
      <trkpt lat="42.90786" lon="0.179">
        <ele>1674.7</ele>
        <time>2021-03-23T13:31:16Z</time>
      </trkpt>
      <trkpt lat="42.90796" lon="0.17885">
        <ele>1672.3</ele>
        <time>2021-03-23T13:31:18Z</time>
      </trkpt>
      <trkpt lat="42.90809" lon="0.17881">
        <ele>1670</ele>
        <time>2021-03-23T13:31:20Z</time>
      </trkpt>
      <trkpt lat="42.90821" lon="0.17885">
        <ele>1667.7</ele>
        <time>2021-03-23T13:31:22Z</time>
      </trkpt>
      <trkpt lat="42.90834" lon="0.1789">
        <ele>1665.3</ele>
        <time>2021-03-23T13:31:24Z</time>
      </trkpt>
      <trkpt lat="42.90847" lon="0.17896">
        <ele>1662.5</ele>
        <time>2021-03-23T13:31:26Z</time>
      </trkpt>
      <trkpt lat="42.90861" lon="0.17905">
        <ele>1659.7</ele>
        <time>2021-03-23T13:31:28Z</time>
      </trkpt>
      <trkpt lat="42.90872" lon="0.1792">
        <ele>1656.7</ele>
        <time>2021-03-23T13:31:30Z</time>
      </trkpt>
      <trkpt lat="42.90881" lon="0.17938">
        <ele>1653.6</ele>
        <time>2021-03-23T13:31:32Z</time>
      </trkpt>
      <trkpt lat="42.90889" lon="0.17957">
        <ele>1650.6</ele>
        <time>2021-03-23T13:31:34Z</time>
      </trkpt>
      <trkpt lat="42.90897" lon="0.17972">
        <ele>1647.8</ele>
        <time>2021-03-23T13:31:36Z</time>
      </trkpt>
      <trkpt lat="42.90902" lon="0.17984">
        <ele>1645.1</ele>
        <time>2021-03-23T13:31:38Z</time>
      </trkpt>
      <trkpt lat="42.90911" lon="0.17993">
        <ele>1635.3</ele>
        <time>2021-03-23T13:31:51Z</time>
      </trkpt>
      <trkpt lat="42.90924" lon="0.18">
        <ele>1634.3</ele>
        <time>2021-03-23T13:31:53Z</time>
      </trkpt>
      <trkpt lat="42.90934" lon="0.18003">
        <ele>1633.4</ele>
        <time>2021-03-23T13:31:55Z</time>
      </trkpt>
      <trkpt lat="42.90944" lon="0.18002">
        <ele>1632.4</ele>
        <time>2021-03-23T13:31:57Z</time>
      </trkpt>
      <trkpt lat="42.90954" lon="0.18001">
        <ele>1630.9</ele>
        <time>2021-03-23T13:32:00Z</time>
      </trkpt>
      <trkpt lat="42.90962" lon="0.18005">
        <ele>1623.7</ele>
        <time>2021-03-23T13:33:27Z</time>
      </trkpt>
      <trkpt lat="42.90972" lon="0.18001">
        <ele>1622.8</ele>
        <time>2021-03-23T13:33:36Z</time>
      </trkpt>
      <trkpt lat="42.90982" lon="0.18">
        <ele>1622.5</ele>
        <time>2021-03-23T13:33:45Z</time>
      </trkpt>
      <trkpt lat="42.90991" lon="0.17996">
        <ele>1622.2</ele>
        <time>2021-03-23T13:33:55Z</time>
      </trkpt>
      <trkpt lat="42.90989" lon="0.17992">
        <ele>1622.2</ele>
        <time>2021-03-23T13:37:14Z</time>
      </trkpt>
    </trkseg>
  </trk>
</gpx>